<?xml version="1.0" encoding="UTF-8" standalone="no" ?>
<gpx xmlns="http://www.topografix.com/GPX/1/1" xmlns:xsi="http://www.w3.org/2001/XMLSchema-instance" xsi:schemaLocation="http://www.topografix.com/GPX/1/1 http://www.topografix.com/GPX/1/1/gpx.xsd" version="1.1" creator="VisuGPX - https://www.visugpx.com">
  <metadata>
    <name>sortie cyclos groupe 2 du 1/04/2011</name>
    <desc><![CDATA[Encore une belle sortie avec le soleil]]></desc>
  </metadata>
  <trk>
    <name><![CDATA[ACTIVE LOG]]></name>
    <trkseg>
      <trkpt lat="47.07436" lon="5.49503">
        <ele>197.688232</ele>
        <time>2011-04-01T11:46:14Z</time>
      </trkpt>
      <trkpt lat="47.07436" lon="5.49503">
        <ele>200.572266</ele>
        <time>2011-04-01T11:46:42Z</time>
      </trkpt>
      <trkpt lat="47.07436" lon="5.49503">
        <ele>202.014282</ele>
        <time>2011-04-01T11:46:58Z</time>
      </trkpt>
      <trkpt lat="47.07444" lon="5.49469">
        <ele>201.533569</ele>
        <time>2011-04-01T11:47:09Z</time>
      </trkpt>
      <trkpt lat="47.07456" lon="5.49425">
        <ele>201.052856</ele>
        <time>2011-04-01T11:47:21Z</time>
      </trkpt>
      <trkpt lat="47.07458" lon="5.49409">
        <ele>201.052856</ele>
        <time>2011-04-01T11:47:24Z</time>
      </trkpt>
      <trkpt lat="47.07506" lon="5.49312">
        <ele>200.091675</ele>
        <time>2011-04-01T11:47:39Z</time>
      </trkpt>
      <trkpt lat="47.07596" lon="5.49134">
        <ele>200.091675</ele>
        <time>2011-04-01T11:48:02Z</time>
      </trkpt>
      <trkpt lat="47.07683" lon="5.49012">
        <ele>198.649536</ele>
        <time>2011-04-01T11:48:22Z</time>
      </trkpt>
      <trkpt lat="47.07743" lon="5.4896">
        <ele>198.168945</ele>
        <time>2011-04-01T11:48:34Z</time>
      </trkpt>
      <trkpt lat="47.0776" lon="5.4896">
        <ele>197.688232</ele>
        <time>2011-04-01T11:48:38Z</time>
      </trkpt>
      <trkpt lat="47.07769" lon="5.48966">
        <ele>197.688232</ele>
        <time>2011-04-01T11:48:40Z</time>
      </trkpt>
      <trkpt lat="47.07804" lon="5.48961">
        <ele>197.20752</ele>
        <time>2011-04-01T11:48:47Z</time>
      </trkpt>
      <trkpt lat="47.07834" lon="5.48965">
        <ele>197.20752</ele>
        <time>2011-04-01T11:48:53Z</time>
      </trkpt>
      <trkpt lat="47.0785" lon="5.48969">
        <ele>197.20752</ele>
        <time>2011-04-01T11:48:56Z</time>
      </trkpt>
      <trkpt lat="47.07871" lon="5.48965">
        <ele>196.726929</ele>
        <time>2011-04-01T11:49:00Z</time>
      </trkpt>
      <trkpt lat="47.07891" lon="5.48953">
        <ele>197.20752</ele>
        <time>2011-04-01T11:49:04Z</time>
      </trkpt>
      <trkpt lat="47.0791" lon="5.48929">
        <ele>197.20752</ele>
        <time>2011-04-01T11:49:09Z</time>
      </trkpt>
      <trkpt lat="47.07966" lon="5.48767">
        <ele>197.688232</ele>
        <time>2011-04-01T11:49:32Z</time>
      </trkpt>
      <trkpt lat="47.07975" lon="5.48742">
        <ele>197.20752</ele>
        <time>2011-04-01T11:49:36Z</time>
      </trkpt>
      <trkpt lat="47.07984" lon="5.48725">
        <ele>197.20752</ele>
        <time>2011-04-01T11:49:39Z</time>
      </trkpt>
      <trkpt lat="47.08011" lon="5.48717">
        <ele>197.20752</ele>
        <time>2011-04-01T11:49:45Z</time>
      </trkpt>
      <trkpt lat="47.08093" lon="5.4878">
        <ele>196.726929</ele>
        <time>2011-04-01T11:50:02Z</time>
      </trkpt>
      <trkpt lat="47.08164" lon="5.48881">
        <ele>197.20752</ele>
        <time>2011-04-01T11:50:19Z</time>
      </trkpt>
      <trkpt lat="47.08249" lon="5.49014">
        <ele>197.20752</ele>
        <time>2011-04-01T11:50:41Z</time>
      </trkpt>
      <trkpt lat="47.08273" lon="5.49009">
        <ele>196.726929</ele>
        <time>2011-04-01T11:50:47Z</time>
      </trkpt>
      <trkpt lat="47.0837" lon="5.48882">
        <ele>197.688232</ele>
        <time>2011-04-01T11:51:11Z</time>
      </trkpt>
      <trkpt lat="47.08408" lon="5.48885">
        <ele>197.688232</ele>
        <time>2011-04-01T11:51:19Z</time>
      </trkpt>
      <trkpt lat="47.08496" lon="5.49025">
        <ele>196.726929</ele>
        <time>2011-04-01T11:51:42Z</time>
      </trkpt>
      <trkpt lat="47.08571" lon="5.49125">
        <ele>197.688232</ele>
        <time>2011-04-01T11:52:00Z</time>
      </trkpt>
      <trkpt lat="47.08644" lon="5.49235">
        <ele>197.688232</ele>
        <time>2011-04-01T11:52:18Z</time>
      </trkpt>
      <trkpt lat="47.08695" lon="5.49419">
        <ele>197.688232</ele>
        <time>2011-04-01T11:52:41Z</time>
      </trkpt>
      <trkpt lat="47.08691" lon="5.49482">
        <ele>199.130127</ele>
        <time>2011-04-01T11:52:51Z</time>
      </trkpt>
      <trkpt lat="47.08687" lon="5.49487">
        <ele>199.130127</ele>
        <time>2011-04-01T11:52:53Z</time>
      </trkpt>
      <trkpt lat="47.08665" lon="5.49512">
        <ele>198.649536</ele>
        <time>2011-04-01T11:53:04Z</time>
      </trkpt>
      <trkpt lat="47.08676" lon="5.49567">
        <ele>200.572266</ele>
        <time>2011-04-01T11:53:16Z</time>
      </trkpt>
      <trkpt lat="47.08686" lon="5.49588">
        <ele>200.572266</ele>
        <time>2011-04-01T11:53:21Z</time>
      </trkpt>
      <trkpt lat="47.08721" lon="5.49579">
        <ele>200.572266</ele>
        <time>2011-04-01T11:53:30Z</time>
      </trkpt>
      <trkpt lat="47.08726" lon="5.49556">
        <ele>201.052856</ele>
        <time>2011-04-01T11:53:34Z</time>
      </trkpt>
      <trkpt lat="47.08741" lon="5.49533">
        <ele>201.533569</ele>
        <time>2011-04-01T11:53:39Z</time>
      </trkpt>
      <trkpt lat="47.08811" lon="5.49488">
        <ele>202.494873</ele>
        <time>2011-04-01T11:53:57Z</time>
      </trkpt>
      <trkpt lat="47.08866" lon="5.49453">
        <ele>202.014282</ele>
        <time>2011-04-01T11:54:11Z</time>
      </trkpt>
      <trkpt lat="47.08892" lon="5.49465">
        <ele>201.052856</ele>
        <time>2011-04-01T11:54:18Z</time>
      </trkpt>
      <trkpt lat="47.0891" lon="5.49517">
        <ele>199.130127</ele>
        <time>2011-04-01T11:54:24Z</time>
      </trkpt>
      <trkpt lat="47.0897" lon="5.49623">
        <ele>199.130127</ele>
        <time>2011-04-01T11:54:39Z</time>
      </trkpt>
      <trkpt lat="47.09039" lon="5.49685">
        <ele>199.61084</ele>
        <time>2011-04-01T11:54:54Z</time>
      </trkpt>
      <trkpt lat="47.09147" lon="5.49779">
        <ele>200.091675</ele>
        <time>2011-04-01T11:55:16Z</time>
      </trkpt>
      <trkpt lat="47.09221" lon="5.49843">
        <ele>200.091675</ele>
        <time>2011-04-01T11:55:32Z</time>
      </trkpt>
      <trkpt lat="47.09283" lon="5.49897">
        <ele>200.572266</ele>
        <time>2011-04-01T11:55:45Z</time>
      </trkpt>
      <trkpt lat="47.0931" lon="5.49928">
        <ele>201.533569</ele>
        <time>2011-04-01T11:55:52Z</time>
      </trkpt>
      <trkpt lat="47.09335" lon="5.49931">
        <ele>202.494873</ele>
        <time>2011-04-01T11:55:58Z</time>
      </trkpt>
      <trkpt lat="47.09358" lon="5.49907">
        <ele>202.494873</ele>
        <time>2011-04-01T11:56:06Z</time>
      </trkpt>
      <trkpt lat="47.09372" lon="5.49917">
        <ele>202.014282</ele>
        <time>2011-04-01T11:56:10Z</time>
      </trkpt>
      <trkpt lat="47.09377" lon="5.49932">
        <ele>201.052856</ele>
        <time>2011-04-01T11:56:12Z</time>
      </trkpt>
      <trkpt lat="47.09381" lon="5.50002">
        <ele>200.091675</ele>
        <time>2011-04-01T11:56:20Z</time>
      </trkpt>
      <trkpt lat="47.09379" lon="5.50026">
        <ele>200.091675</ele>
        <time>2011-04-01T11:56:24Z</time>
      </trkpt>
      <trkpt lat="47.09376" lon="5.50038">
        <ele>199.61084</ele>
        <time>2011-04-01T11:56:26Z</time>
      </trkpt>
      <trkpt lat="47.09373" lon="5.50085">
        <ele>199.61084</ele>
        <time>2011-04-01T11:56:33Z</time>
      </trkpt>
      <trkpt lat="47.09363" lon="5.5016">
        <ele>200.091675</ele>
        <time>2011-04-01T11:56:46Z</time>
      </trkpt>
      <trkpt lat="47.09357" lon="5.50227">
        <ele>200.091675</ele>
        <time>2011-04-01T11:56:57Z</time>
      </trkpt>
      <trkpt lat="47.09351" lon="5.5026">
        <ele>202.014282</ele>
        <time>2011-04-01T11:57:06Z</time>
      </trkpt>
      <trkpt lat="47.09342" lon="5.50276">
        <ele>202.014282</ele>
        <time>2011-04-01T11:57:15Z</time>
      </trkpt>
      <trkpt lat="47.09312" lon="5.50325">
        <ele>200.091675</ele>
        <time>2011-04-01T11:57:22Z</time>
      </trkpt>
      <trkpt lat="47.0929" lon="5.50407">
        <ele>199.130127</ele>
        <time>2011-04-01T11:57:33Z</time>
      </trkpt>
      <trkpt lat="47.09298" lon="5.50434">
        <ele>199.130127</ele>
        <time>2011-04-01T11:57:37Z</time>
      </trkpt>
      <trkpt lat="47.09307" lon="5.50441">
        <ele>199.130127</ele>
        <time>2011-04-01T11:57:39Z</time>
      </trkpt>
      <trkpt lat="47.09319" lon="5.50467">
        <ele>199.61084</ele>
        <time>2011-04-01T11:57:44Z</time>
      </trkpt>
      <trkpt lat="47.09312" lon="5.50564">
        <ele>202.014282</ele>
        <time>2011-04-01T11:58:00Z</time>
      </trkpt>
      <trkpt lat="47.09305" lon="5.50681">
        <ele>201.533569</ele>
        <time>2011-04-01T11:58:17Z</time>
      </trkpt>
      <trkpt lat="47.09298" lon="5.50796">
        <ele>201.533569</ele>
        <time>2011-04-01T11:58:33Z</time>
      </trkpt>
      <trkpt lat="47.09298" lon="5.50801">
        <ele>201.533569</ele>
        <time>2011-04-01T11:58:34Z</time>
      </trkpt>
      <trkpt lat="47.09303" lon="5.5081">
        <ele>201.533569</ele>
        <time>2011-04-01T11:58:36Z</time>
      </trkpt>
      <trkpt lat="47.09304" lon="5.50826">
        <ele>201.052856</ele>
        <time>2011-04-01T11:58:39Z</time>
      </trkpt>
      <trkpt lat="47.09294" lon="5.50865">
        <ele>202.014282</ele>
        <time>2011-04-01T11:58:45Z</time>
      </trkpt>
      <trkpt lat="47.09287" lon="5.50944">
        <ele>202.494873</ele>
        <time>2011-04-01T11:58:56Z</time>
      </trkpt>
      <trkpt lat="47.09284" lon="5.50967">
        <ele>202.494873</ele>
        <time>2011-04-01T11:58:59Z</time>
      </trkpt>
      <trkpt lat="47.09275" lon="5.51086">
        <ele>202.494873</ele>
        <time>2011-04-01T11:59:13Z</time>
      </trkpt>
      <trkpt lat="47.09272" lon="5.51261">
        <ele>202.975464</ele>
        <time>2011-04-01T11:59:32Z</time>
      </trkpt>
      <trkpt lat="47.09274" lon="5.51383">
        <ele>202.494873</ele>
        <time>2011-04-01T11:59:46Z</time>
      </trkpt>
      <trkpt lat="47.09293" lon="5.51552">
        <ele>202.494873</ele>
        <time>2011-04-01T12:00:05Z</time>
      </trkpt>
      <trkpt lat="47.09321" lon="5.51694">
        <ele>202.975464</ele>
        <time>2011-04-01T12:00:22Z</time>
      </trkpt>
      <trkpt lat="47.0935" lon="5.5184">
        <ele>202.975464</ele>
        <time>2011-04-01T12:00:39Z</time>
      </trkpt>
      <trkpt lat="47.09381" lon="5.51996">
        <ele>203.456177</ele>
        <time>2011-04-01T12:00:58Z</time>
      </trkpt>
      <trkpt lat="47.09413" lon="5.52153">
        <ele>203.93689</ele>
        <time>2011-04-01T12:01:17Z</time>
      </trkpt>
      <trkpt lat="47.09436" lon="5.52273">
        <ele>203.456177</ele>
        <time>2011-04-01T12:01:32Z</time>
      </trkpt>
      <trkpt lat="47.09478" lon="5.52461">
        <ele>202.975464</ele>
        <time>2011-04-01T12:01:53Z</time>
      </trkpt>
      <trkpt lat="47.0951" lon="5.52631">
        <ele>202.975464</ele>
        <time>2011-04-01T12:02:15Z</time>
      </trkpt>
      <trkpt lat="47.09524" lon="5.52684">
        <ele>205.859497</ele>
        <time>2011-04-01T12:02:26Z</time>
      </trkpt>
      <trkpt lat="47.09535" lon="5.52688">
        <ele>206.340088</ele>
        <time>2011-04-01T12:02:30Z</time>
      </trkpt>
      <trkpt lat="47.09567" lon="5.52667">
        <ele>203.456177</ele>
        <time>2011-04-01T12:02:44Z</time>
      </trkpt>
      <trkpt lat="47.09568" lon="5.52667">
        <ele>203.456177</ele>
        <time>2011-04-01T12:03:22Z</time>
      </trkpt>
      <trkpt lat="47.09563" lon="5.52668">
        <ele>203.456177</ele>
        <time>2011-04-01T12:03:27Z</time>
      </trkpt>
      <trkpt lat="47.09543" lon="5.52679">
        <ele>206.340088</ele>
        <time>2011-04-01T12:03:36Z</time>
      </trkpt>
      <trkpt lat="47.09556" lon="5.52676">
        <ele>205.859497</ele>
        <time>2011-04-01T12:03:43Z</time>
      </trkpt>
      <trkpt lat="47.09561" lon="5.52671">
        <ele>205.378784</ele>
        <time>2011-04-01T12:03:44Z</time>
      </trkpt>
      <trkpt lat="47.09627" lon="5.5254">
        <ele>202.975464</ele>
        <time>2011-04-01T12:03:59Z</time>
      </trkpt>
      <trkpt lat="47.09662" lon="5.52437">
        <ele>204.41748</ele>
        <time>2011-04-01T12:04:10Z</time>
      </trkpt>
      <trkpt lat="47.09674" lon="5.52417">
        <ele>206.340088</ele>
        <time>2011-04-01T12:04:13Z</time>
      </trkpt>
      <trkpt lat="47.09679" lon="5.52414">
        <ele>206.820679</ele>
        <time>2011-04-01T12:04:14Z</time>
      </trkpt>
      <trkpt lat="47.09689" lon="5.5241">
        <ele>207.782104</ele>
        <time>2011-04-01T12:04:16Z</time>
      </trkpt>
      <trkpt lat="47.09711" lon="5.52402">
        <ele>209.224121</ele>
        <time>2011-04-01T12:04:25Z</time>
      </trkpt>
      <trkpt lat="47.09718" lon="5.52405">
        <ele>209.224121</ele>
        <time>2011-04-01T12:04:30Z</time>
      </trkpt>
      <trkpt lat="47.09716" lon="5.52401">
        <ele>209.224121</ele>
        <time>2011-04-01T12:04:36Z</time>
      </trkpt>
      <trkpt lat="47.09686" lon="5.52376">
        <ele>210.185425</ele>
        <time>2011-04-01T12:04:47Z</time>
      </trkpt>
      <trkpt lat="47.09674" lon="5.52354">
        <ele>210.666016</ele>
        <time>2011-04-01T12:04:51Z</time>
      </trkpt>
      <trkpt lat="47.09663" lon="5.52333">
        <ele>210.185425</ele>
        <time>2011-04-01T12:04:55Z</time>
      </trkpt>
      <trkpt lat="47.09656" lon="5.5231">
        <ele>210.185425</ele>
        <time>2011-04-01T12:04:59Z</time>
      </trkpt>
      <trkpt lat="47.09652" lon="5.52299">
        <ele>211.146729</ele>
        <time>2011-04-01T12:05:01Z</time>
      </trkpt>
      <trkpt lat="47.0964" lon="5.52255">
        <ele>210.185425</ele>
        <time>2011-04-01T12:05:08Z</time>
      </trkpt>
      <trkpt lat="47.09629" lon="5.52222">
        <ele>210.185425</ele>
        <time>2011-04-01T12:05:15Z</time>
      </trkpt>
      <trkpt lat="47.09629" lon="5.52216">
        <ele>210.185425</ele>
        <time>2011-04-01T12:05:17Z</time>
      </trkpt>
      <trkpt lat="47.09635" lon="5.52228">
        <ele>210.185425</ele>
        <time>2011-04-01T12:05:24Z</time>
      </trkpt>
      <trkpt lat="47.09637" lon="5.52234">
        <ele>210.666016</ele>
        <time>2011-04-01T12:05:25Z</time>
      </trkpt>
      <trkpt lat="47.09662" lon="5.52319">
        <ele>210.666016</ele>
        <time>2011-04-01T12:05:36Z</time>
      </trkpt>
      <trkpt lat="47.09711" lon="5.52398">
        <ele>210.185425</ele>
        <time>2011-04-01T12:05:48Z</time>
      </trkpt>
      <trkpt lat="47.09733" lon="5.52406">
        <ele>210.666016</ele>
        <time>2011-04-01T12:05:52Z</time>
      </trkpt>
      <trkpt lat="47.09816" lon="5.52408">
        <ele>214.03064</ele>
        <time>2011-04-01T12:06:06Z</time>
      </trkpt>
      <trkpt lat="47.09901" lon="5.52375">
        <ele>214.51123</ele>
        <time>2011-04-01T12:06:22Z</time>
      </trkpt>
      <trkpt lat="47.0992" lon="5.52352">
        <ele>214.51123</ele>
        <time>2011-04-01T12:06:27Z</time>
      </trkpt>
      <trkpt lat="47.09948" lon="5.52269">
        <ele>212.108032</ele>
        <time>2011-04-01T12:06:38Z</time>
      </trkpt>
      <trkpt lat="47.09966" lon="5.52241">
        <ele>210.185425</ele>
        <time>2011-04-01T12:06:44Z</time>
      </trkpt>
      <trkpt lat="47.10057" lon="5.52163">
        <ele>210.185425</ele>
        <time>2011-04-01T12:06:58Z</time>
      </trkpt>
      <trkpt lat="47.10063" lon="5.52158">
        <ele>210.666016</ele>
        <time>2011-04-01T12:06:59Z</time>
      </trkpt>
      <trkpt lat="47.10097" lon="5.5215">
        <ele>211.627441</ele>
        <time>2011-04-01T12:07:04Z</time>
      </trkpt>
      <trkpt lat="47.10118" lon="5.52155">
        <ele>212.108032</ele>
        <time>2011-04-01T12:07:07Z</time>
      </trkpt>
      <trkpt lat="47.10153" lon="5.52144">
        <ele>214.51123</ele>
        <time>2011-04-01T12:07:13Z</time>
      </trkpt>
      <trkpt lat="47.10172" lon="5.52126">
        <ele>215.472656</ele>
        <time>2011-04-01T12:07:17Z</time>
      </trkpt>
      <trkpt lat="47.10264" lon="5.52084">
        <ele>219.317993</ele>
        <time>2011-04-01T12:07:34Z</time>
      </trkpt>
      <trkpt lat="47.10346" lon="5.52048">
        <ele>222.201782</ele>
        <time>2011-04-01T12:07:53Z</time>
      </trkpt>
      <trkpt lat="47.10366" lon="5.52036">
        <ele>221.721191</ele>
        <time>2011-04-01T12:07:58Z</time>
      </trkpt>
      <trkpt lat="47.10419" lon="5.52009">
        <ele>218.356567</ele>
        <time>2011-04-01T12:08:06Z</time>
      </trkpt>
      <trkpt lat="47.10516" lon="5.519">
        <ele>217.395386</ele>
        <time>2011-04-01T12:08:21Z</time>
      </trkpt>
      <trkpt lat="47.10548" lon="5.5186">
        <ele>218.356567</ele>
        <time>2011-04-01T12:08:27Z</time>
      </trkpt>
      <trkpt lat="47.10579" lon="5.51831">
        <ele>219.798584</ele>
        <time>2011-04-01T12:08:37Z</time>
      </trkpt>
      <trkpt lat="47.10613" lon="5.51776">
        <ele>222.201782</ele>
        <time>2011-04-01T12:08:49Z</time>
      </trkpt>
      <trkpt lat="47.10689" lon="5.51676">
        <ele>224.124512</ele>
        <time>2011-04-01T12:09:08Z</time>
      </trkpt>
      <trkpt lat="47.10751" lon="5.51596">
        <ele>227.008545</ele>
        <time>2011-04-01T12:09:22Z</time>
      </trkpt>
      <trkpt lat="47.10799" lon="5.51538">
        <ele>227.969727</ele>
        <time>2011-04-01T12:09:33Z</time>
      </trkpt>
      <trkpt lat="47.10869" lon="5.51518">
        <ele>231.334351</ele>
        <time>2011-04-01T12:09:47Z</time>
      </trkpt>
      <trkpt lat="47.1092" lon="5.51504">
        <ele>234.218384</ele>
        <time>2011-04-01T12:09:59Z</time>
      </trkpt>
      <trkpt lat="47.1097" lon="5.51432">
        <ele>235.660278</ele>
        <time>2011-04-01T12:10:13Z</time>
      </trkpt>
      <trkpt lat="47.11012" lon="5.51341">
        <ele>231.334351</ele>
        <time>2011-04-01T12:10:24Z</time>
      </trkpt>
      <trkpt lat="47.11016" lon="5.51331">
        <ele>231.334351</ele>
        <time>2011-04-01T12:10:25Z</time>
      </trkpt>
      <trkpt lat="47.11036" lon="5.51286">
        <ele>228.450439</ele>
        <time>2011-04-01T12:10:29Z</time>
      </trkpt>
      <trkpt lat="47.1105" lon="5.51267">
        <ele>227.969727</ele>
        <time>2011-04-01T12:10:31Z</time>
      </trkpt>
      <trkpt lat="47.11074" lon="5.51251">
        <ele>227.008545</ele>
        <time>2011-04-01T12:10:34Z</time>
      </trkpt>
      <trkpt lat="47.11242" lon="5.51162">
        <ele>225.566528</ele>
        <time>2011-04-01T12:10:56Z</time>
      </trkpt>
      <trkpt lat="47.11372" lon="5.51063">
        <ele>226.527832</ele>
        <time>2011-04-01T12:11:17Z</time>
      </trkpt>
      <trkpt lat="47.11438" lon="5.5095">
        <ele>228.450439</ele>
        <time>2011-04-01T12:11:32Z</time>
      </trkpt>
      <trkpt lat="47.11519" lon="5.5086">
        <ele>229.892334</ele>
        <time>2011-04-01T12:11:47Z</time>
      </trkpt>
      <trkpt lat="47.11535" lon="5.50842">
        <ele>231.334351</ele>
        <time>2011-04-01T12:11:50Z</time>
      </trkpt>
      <trkpt lat="47.11588" lon="5.50783">
        <ele>231.334351</ele>
        <time>2011-04-01T12:12:03Z</time>
      </trkpt>
      <trkpt lat="47.11618" lon="5.50757">
        <ele>230.85376</ele>
        <time>2011-04-01T12:12:12Z</time>
      </trkpt>
      <trkpt lat="47.11668" lon="5.50726">
        <ele>230.85376</ele>
        <time>2011-04-01T12:12:25Z</time>
      </trkpt>
      <trkpt lat="47.11758" lon="5.50675">
        <ele>231.814941</ele>
        <time>2011-04-01T12:12:48Z</time>
      </trkpt>
      <trkpt lat="47.11819" lon="5.50643">
        <ele>232.295776</ele>
        <time>2011-04-01T12:13:06Z</time>
      </trkpt>
      <trkpt lat="47.11919" lon="5.50586">
        <ele>234.218384</ele>
        <time>2011-04-01T12:13:33Z</time>
      </trkpt>
      <trkpt lat="47.1202" lon="5.50529">
        <ele>235.660278</ele>
        <time>2011-04-01T12:14:00Z</time>
      </trkpt>
      <trkpt lat="47.12022" lon="5.5053">
        <ele>235.179688</ele>
        <time>2011-04-01T12:14:13Z</time>
      </trkpt>
      <trkpt lat="47.12021" lon="5.50533">
        <ele>235.660278</ele>
        <time>2011-04-01T12:14:55Z</time>
      </trkpt>
      <trkpt lat="47.12021" lon="5.50532">
        <ele>235.660278</ele>
        <time>2011-04-01T12:17:10Z</time>
      </trkpt>
      <trkpt lat="47.12052" lon="5.50508">
        <ele>237.102295</ele>
        <time>2011-04-01T12:17:23Z</time>
      </trkpt>
      <trkpt lat="47.12112" lon="5.5043">
        <ele>238.544312</ele>
        <time>2011-04-01T12:17:42Z</time>
      </trkpt>
      <trkpt lat="47.12157" lon="5.50371">
        <ele>240.947632</ele>
        <time>2011-04-01T12:17:58Z</time>
      </trkpt>
      <trkpt lat="47.12217" lon="5.50286">
        <ele>243.35083</ele>
        <time>2011-04-01T12:18:19Z</time>
      </trkpt>
      <trkpt lat="47.12245" lon="5.50252">
        <ele>243.35083</ele>
        <time>2011-04-01T12:18:31Z</time>
      </trkpt>
      <trkpt lat="47.12327" lon="5.50276">
        <ele>243.831543</ele>
        <time>2011-04-01T12:18:50Z</time>
      </trkpt>
      <trkpt lat="47.12382" lon="5.50291">
        <ele>243.35083</ele>
        <time>2011-04-01T12:19:01Z</time>
      </trkpt>
      <trkpt lat="47.12403" lon="5.50285">
        <ele>243.35083</ele>
        <time>2011-04-01T12:19:05Z</time>
      </trkpt>
      <trkpt lat="47.12487" lon="5.50232">
        <ele>244.792847</ele>
        <time>2011-04-01T12:19:25Z</time>
      </trkpt>
      <trkpt lat="47.12499" lon="5.50226">
        <ele>244.792847</ele>
        <time>2011-04-01T12:19:28Z</time>
      </trkpt>
      <trkpt lat="47.12516" lon="5.50223">
        <ele>245.273438</ele>
        <time>2011-04-01T12:19:32Z</time>
      </trkpt>
      <trkpt lat="47.12574" lon="5.50245">
        <ele>248.638184</ele>
        <time>2011-04-01T12:19:49Z</time>
      </trkpt>
      <trkpt lat="47.12623" lon="5.50273">
        <ele>252.002808</ele>
        <time>2011-04-01T12:20:05Z</time>
      </trkpt>
      <trkpt lat="47.1268" lon="5.50317">
        <ele>253.444702</ele>
        <time>2011-04-01T12:20:23Z</time>
      </trkpt>
      <trkpt lat="47.12765" lon="5.50326">
        <ele>254.886597</ele>
        <time>2011-04-01T12:20:43Z</time>
      </trkpt>
      <trkpt lat="47.12853" lon="5.50394">
        <ele>257.770752</ele>
        <time>2011-04-01T12:21:07Z</time>
      </trkpt>
      <trkpt lat="47.12931" lon="5.50431">
        <ele>260.654541</ele>
        <time>2011-04-01T12:21:28Z</time>
      </trkpt>
      <trkpt lat="47.12999" lon="5.50437">
        <ele>263.538574</ele>
        <time>2011-04-01T12:21:46Z</time>
      </trkpt>
      <trkpt lat="47.13057" lon="5.504">
        <ele>266.422485</ele>
        <time>2011-04-01T12:22:04Z</time>
      </trkpt>
      <trkpt lat="47.13112" lon="5.50359">
        <ele>268.825806</ele>
        <time>2011-04-01T12:22:23Z</time>
      </trkpt>
      <trkpt lat="47.13171" lon="5.50316">
        <ele>271.229126</ele>
        <time>2011-04-01T12:22:43Z</time>
      </trkpt>
      <trkpt lat="47.13251" lon="5.50257">
        <ele>274.113037</ele>
        <time>2011-04-01T12:23:06Z</time>
      </trkpt>
      <trkpt lat="47.13317" lon="5.5021">
        <ele>275.074463</ele>
        <time>2011-04-01T12:23:28Z</time>
      </trkpt>
      <trkpt lat="47.13402" lon="5.50157">
        <ele>274.113037</ele>
        <time>2011-04-01T12:23:50Z</time>
      </trkpt>
      <trkpt lat="47.13464" lon="5.50154">
        <ele>272.19043</ele>
        <time>2011-04-01T12:24:04Z</time>
      </trkpt>
      <trkpt lat="47.13465" lon="5.5015">
        <ele>271.709717</ele>
        <time>2011-04-01T12:24:15Z</time>
      </trkpt>
      <trkpt lat="47.13466" lon="5.50148">
        <ele>272.19043</ele>
        <time>2011-04-01T12:25:16Z</time>
      </trkpt>
      <trkpt lat="47.13462" lon="5.50101">
        <ele>272.19043</ele>
        <time>2011-04-01T12:25:26Z</time>
      </trkpt>
      <trkpt lat="47.13473" lon="5.50079">
        <ele>270.748413</ele>
        <time>2011-04-01T12:25:34Z</time>
      </trkpt>
      <trkpt lat="47.13501" lon="5.50079">
        <ele>270.2677</ele>
        <time>2011-04-01T12:25:43Z</time>
      </trkpt>
      <trkpt lat="47.13586" lon="5.50084">
        <ele>267.383911</ele>
        <time>2011-04-01T12:25:56Z</time>
      </trkpt>
      <trkpt lat="47.13664" lon="5.50071">
        <ele>263.538574</ele>
        <time>2011-04-01T12:26:05Z</time>
      </trkpt>
      <trkpt lat="47.13719" lon="5.50059">
        <ele>260.17395</ele>
        <time>2011-04-01T12:26:11Z</time>
      </trkpt>
      <trkpt lat="47.13778" lon="5.50046">
        <ele>256.328735</ele>
        <time>2011-04-01T12:26:17Z</time>
      </trkpt>
      <trkpt lat="47.13807" lon="5.5004">
        <ele>254.886597</ele>
        <time>2011-04-01T12:26:20Z</time>
      </trkpt>
      <trkpt lat="47.13835" lon="5.5003">
        <ele>253.444702</ele>
        <time>2011-04-01T12:26:23Z</time>
      </trkpt>
      <trkpt lat="47.13936" lon="5.50012">
        <ele>249.599487</ele>
        <time>2011-04-01T12:26:34Z</time>
      </trkpt>
      <trkpt lat="47.13989" lon="5.49997">
        <ele>246.715454</ele>
        <time>2011-04-01T12:26:40Z</time>
      </trkpt>
      <trkpt lat="47.14064" lon="5.49976">
        <ele>243.831543</ele>
        <time>2011-04-01T12:26:48Z</time>
      </trkpt>
      <trkpt lat="47.14115" lon="5.49953">
        <ele>242.389648</ele>
        <time>2011-04-01T12:26:54Z</time>
      </trkpt>
      <trkpt lat="47.14133" lon="5.4991">
        <ele>241.428223</ele>
        <time>2011-04-01T12:26:59Z</time>
      </trkpt>
      <trkpt lat="47.14126" lon="5.49888">
        <ele>239.986206</ele>
        <time>2011-04-01T12:27:01Z</time>
      </trkpt>
      <trkpt lat="47.14126" lon="5.49866">
        <ele>239.024902</ele>
        <time>2011-04-01T12:27:03Z</time>
      </trkpt>
      <trkpt lat="47.14143" lon="5.498">
        <ele>236.140991</ele>
        <time>2011-04-01T12:27:09Z</time>
      </trkpt>
      <trkpt lat="47.14179" lon="5.49669">
        <ele>234.218384</ele>
        <time>2011-04-01T12:27:22Z</time>
      </trkpt>
      <trkpt lat="47.14202" lon="5.49633">
        <ele>233.737671</ele>
        <time>2011-04-01T12:27:27Z</time>
      </trkpt>
      <trkpt lat="47.14296" lon="5.49565">
        <ele>234.699097</ele>
        <time>2011-04-01T12:27:44Z</time>
      </trkpt>
      <trkpt lat="47.14311" lon="5.49553">
        <ele>235.660278</ele>
        <time>2011-04-01T12:27:48Z</time>
      </trkpt>
      <trkpt lat="47.14322" lon="5.49537">
        <ele>235.660278</ele>
        <time>2011-04-01T12:27:52Z</time>
      </trkpt>
      <trkpt lat="47.1433" lon="5.49463">
        <ele>238.063599</ele>
        <time>2011-04-01T12:28:07Z</time>
      </trkpt>
      <trkpt lat="47.14311" lon="5.49369">
        <ele>240.947632</ele>
        <time>2011-04-01T12:28:25Z</time>
      </trkpt>
      <trkpt lat="47.14293" lon="5.49268">
        <ele>244.312256</ele>
        <time>2011-04-01T12:28:45Z</time>
      </trkpt>
      <trkpt lat="47.14306" lon="5.49187">
        <ele>246.715454</ele>
        <time>2011-04-01T12:29:01Z</time>
      </trkpt>
      <trkpt lat="47.1436" lon="5.49111">
        <ele>248.157593</ele>
        <time>2011-04-01T12:29:21Z</time>
      </trkpt>
      <trkpt lat="47.14401" lon="5.49053">
        <ele>248.157593</ele>
        <time>2011-04-01T12:29:35Z</time>
      </trkpt>
      <trkpt lat="47.14409" lon="5.49018">
        <ele>248.157593</ele>
        <time>2011-04-01T12:29:41Z</time>
      </trkpt>
      <trkpt lat="47.144" lon="5.48919">
        <ele>249.599487</ele>
        <time>2011-04-01T12:29:58Z</time>
      </trkpt>
      <trkpt lat="47.14385" lon="5.48777">
        <ele>251.522095</ele>
        <time>2011-04-01T12:30:22Z</time>
      </trkpt>
      <trkpt lat="47.14381" lon="5.48742">
        <ele>252.483398</ele>
        <time>2011-04-01T12:30:28Z</time>
      </trkpt>
      <trkpt lat="47.14376" lon="5.48676">
        <ele>253.444702</ele>
        <time>2011-04-01T12:30:39Z</time>
      </trkpt>
      <trkpt lat="47.14377" lon="5.48657">
        <ele>253.925415</ele>
        <time>2011-04-01T12:30:42Z</time>
      </trkpt>
      <trkpt lat="47.14395" lon="5.48606">
        <ele>254.406006</ele>
        <time>2011-04-01T12:30:51Z</time>
      </trkpt>
      <trkpt lat="47.14519" lon="5.48479">
        <ele>254.406006</ele>
        <time>2011-04-01T12:31:22Z</time>
      </trkpt>
      <trkpt lat="47.14589" lon="5.48406">
        <ele>254.406006</ele>
        <time>2011-04-01T12:31:41Z</time>
      </trkpt>
      <trkpt lat="47.14675" lon="5.48319">
        <ele>253.444702</ele>
        <time>2011-04-01T12:32:03Z</time>
      </trkpt>
      <trkpt lat="47.14732" lon="5.48262">
        <ele>252.963989</ele>
        <time>2011-04-01T12:32:18Z</time>
      </trkpt>
      <trkpt lat="47.1477" lon="5.48239">
        <ele>252.483398</ele>
        <time>2011-04-01T12:32:26Z</time>
      </trkpt>
      <trkpt lat="47.14847" lon="5.48251">
        <ele>252.483398</ele>
        <time>2011-04-01T12:32:42Z</time>
      </trkpt>
      <trkpt lat="47.14944" lon="5.48315">
        <ele>252.002808</ele>
        <time>2011-04-01T12:33:02Z</time>
      </trkpt>
      <trkpt lat="47.15059" lon="5.48389">
        <ele>249.118774</ele>
        <time>2011-04-01T12:33:24Z</time>
      </trkpt>
      <trkpt lat="47.15183" lon="5.48469">
        <ele>249.118774</ele>
        <time>2011-04-01T12:33:47Z</time>
      </trkpt>
      <trkpt lat="47.15312" lon="5.48553">
        <ele>252.483398</ele>
        <time>2011-04-01T12:34:14Z</time>
      </trkpt>
      <trkpt lat="47.15325" lon="5.48561">
        <ele>251.522095</ele>
        <time>2011-04-01T12:34:18Z</time>
      </trkpt>
      <trkpt lat="47.15343" lon="5.48569">
        <ele>252.002808</ele>
        <time>2011-04-01T12:34:26Z</time>
      </trkpt>
      <trkpt lat="47.15392" lon="5.485">
        <ele>249.118774</ele>
        <time>2011-04-01T12:34:38Z</time>
      </trkpt>
      <trkpt lat="47.15396" lon="5.48494">
        <ele>249.118774</ele>
        <time>2011-04-01T12:34:39Z</time>
      </trkpt>
      <trkpt lat="47.15406" lon="5.48474">
        <ele>249.118774</ele>
        <time>2011-04-01T12:34:42Z</time>
      </trkpt>
      <trkpt lat="47.15433" lon="5.48386">
        <ele>252.483398</ele>
        <time>2011-04-01T12:34:56Z</time>
      </trkpt>
      <trkpt lat="47.1545" lon="5.48341">
        <ele>253.925415</ele>
        <time>2011-04-01T12:35:05Z</time>
      </trkpt>
      <trkpt lat="47.15456" lon="5.48261">
        <ele>255.848022</ele>
        <time>2011-04-01T12:35:20Z</time>
      </trkpt>
      <trkpt lat="47.1546" lon="5.48179">
        <ele>258.251343</ele>
        <time>2011-04-01T12:35:36Z</time>
      </trkpt>
      <trkpt lat="47.15448" lon="5.48095">
        <ele>260.17395</ele>
        <time>2011-04-01T12:35:51Z</time>
      </trkpt>
      <trkpt lat="47.15446" lon="5.48062">
        <ele>261.135254</ele>
        <time>2011-04-01T12:35:56Z</time>
      </trkpt>
      <trkpt lat="47.1545" lon="5.48034">
        <ele>260.654541</ele>
        <time>2011-04-01T12:36:00Z</time>
      </trkpt>
      <trkpt lat="47.15488" lon="5.47937">
        <ele>260.654541</ele>
        <time>2011-04-01T12:36:18Z</time>
      </trkpt>
      <trkpt lat="47.15512" lon="5.47844">
        <ele>257.770752</ele>
        <time>2011-04-01T12:36:31Z</time>
      </trkpt>
      <trkpt lat="47.15528" lon="5.47754">
        <ele>254.406006</ele>
        <time>2011-04-01T12:36:40Z</time>
      </trkpt>
      <trkpt lat="47.15548" lon="5.47722">
        <ele>253.444702</ele>
        <time>2011-04-01T12:36:45Z</time>
      </trkpt>
      <trkpt lat="47.15672" lon="5.47712">
        <ele>255.36731</ele>
        <time>2011-04-01T12:37:08Z</time>
      </trkpt>
      <trkpt lat="47.15813" lon="5.47743">
        <ele>256.328735</ele>
        <time>2011-04-01T12:37:34Z</time>
      </trkpt>
      <trkpt lat="47.15899" lon="5.47774">
        <ele>255.36731</ele>
        <time>2011-04-01T12:37:51Z</time>
      </trkpt>
      <trkpt lat="47.15936" lon="5.4779">
        <ele>254.406006</ele>
        <time>2011-04-01T12:37:59Z</time>
      </trkpt>
      <trkpt lat="47.15978" lon="5.47775">
        <ele>252.963989</ele>
        <time>2011-04-01T12:38:06Z</time>
      </trkpt>
      <trkpt lat="47.16006" lon="5.4775">
        <ele>250.560791</ele>
        <time>2011-04-01T12:38:10Z</time>
      </trkpt>
      <trkpt lat="47.16046" lon="5.47716">
        <ele>247.676758</ele>
        <time>2011-04-01T12:38:15Z</time>
      </trkpt>
      <trkpt lat="47.16078" lon="5.47675">
        <ele>245.75415</ele>
        <time>2011-04-01T12:38:19Z</time>
      </trkpt>
      <trkpt lat="47.16098" lon="5.4764">
        <ele>244.312256</ele>
        <time>2011-04-01T12:38:22Z</time>
      </trkpt>
      <trkpt lat="47.16137" lon="5.47605">
        <ele>243.831543</ele>
        <time>2011-04-01T12:38:27Z</time>
      </trkpt>
      <trkpt lat="47.16213" lon="5.4758">
        <ele>245.273438</ele>
        <time>2011-04-01T12:38:38Z</time>
      </trkpt>
      <trkpt lat="47.1625" lon="5.47573">
        <ele>247.196045</ele>
        <time>2011-04-01T12:38:45Z</time>
      </trkpt>
      <trkpt lat="47.16314" lon="5.47603">
        <ele>249.118774</ele>
        <time>2011-04-01T12:38:59Z</time>
      </trkpt>
      <trkpt lat="47.16373" lon="5.47616">
        <ele>251.041382</ele>
        <time>2011-04-01T12:39:13Z</time>
      </trkpt>
      <trkpt lat="47.16422" lon="5.47588">
        <ele>254.406006</ele>
        <time>2011-04-01T12:39:27Z</time>
      </trkpt>
      <trkpt lat="47.16475" lon="5.47541">
        <ele>257.290039</ele>
        <time>2011-04-01T12:39:43Z</time>
      </trkpt>
      <trkpt lat="47.16514" lon="5.47516">
        <ele>260.654541</ele>
        <time>2011-04-01T12:39:55Z</time>
      </trkpt>
      <trkpt lat="47.16589" lon="5.47502">
        <ele>261.135254</ele>
        <time>2011-04-01T12:40:15Z</time>
      </trkpt>
      <trkpt lat="47.16602" lon="5.47504">
        <ele>261.135254</ele>
        <time>2011-04-01T12:40:18Z</time>
      </trkpt>
      <trkpt lat="47.16711" lon="5.47533">
        <ele>258.731934</ele>
        <time>2011-04-01T12:40:41Z</time>
      </trkpt>
      <trkpt lat="47.16776" lon="5.47556">
        <ele>255.36731</ele>
        <time>2011-04-01T12:40:50Z</time>
      </trkpt>
      <trkpt lat="47.16833" lon="5.4758">
        <ele>251.522095</ele>
        <time>2011-04-01T12:40:56Z</time>
      </trkpt>
      <trkpt lat="47.16871" lon="5.47598">
        <ele>249.599487</ele>
        <time>2011-04-01T12:41:00Z</time>
      </trkpt>
      <trkpt lat="47.16908" lon="5.47615">
        <ele>247.676758</ele>
        <time>2011-04-01T12:41:04Z</time>
      </trkpt>
      <trkpt lat="47.16935" lon="5.47628">
        <ele>246.234863</ele>
        <time>2011-04-01T12:41:07Z</time>
      </trkpt>
      <trkpt lat="47.16969" lon="5.47644">
        <ele>244.792847</ele>
        <time>2011-04-01T12:41:11Z</time>
      </trkpt>
      <trkpt lat="47.1703" lon="5.47662">
        <ele>241.428223</ele>
        <time>2011-04-01T12:41:18Z</time>
      </trkpt>
      <trkpt lat="47.17066" lon="5.47668">
        <ele>239.986206</ele>
        <time>2011-04-01T12:41:22Z</time>
      </trkpt>
      <trkpt lat="47.17131" lon="5.47681">
        <ele>236.621704</ele>
        <time>2011-04-01T12:41:29Z</time>
      </trkpt>
      <trkpt lat="47.17217" lon="5.47693">
        <ele>233.737671</ele>
        <time>2011-04-01T12:41:39Z</time>
      </trkpt>
      <trkpt lat="47.17276" lon="5.47702">
        <ele>233.25708</ele>
        <time>2011-04-01T12:41:47Z</time>
      </trkpt>
      <trkpt lat="47.17319" lon="5.47671">
        <ele>231.814941</ele>
        <time>2011-04-01T12:41:54Z</time>
      </trkpt>
      <trkpt lat="47.17345" lon="5.47595">
        <ele>230.85376</ele>
        <time>2011-04-01T12:42:03Z</time>
      </trkpt>
      <trkpt lat="47.17418" lon="5.47453">
        <ele>227.969727</ele>
        <time>2011-04-01T12:42:21Z</time>
      </trkpt>
      <trkpt lat="47.17429" lon="5.47442">
        <ele>227.008545</ele>
        <time>2011-04-01T12:42:23Z</time>
      </trkpt>
      <trkpt lat="47.17448" lon="5.47429">
        <ele>226.047119</ele>
        <time>2011-04-01T12:42:26Z</time>
      </trkpt>
      <trkpt lat="47.1747" lon="5.47424">
        <ele>224.605225</ele>
        <time>2011-04-01T12:42:29Z</time>
      </trkpt>
      <trkpt lat="47.17497" lon="5.47452">
        <ele>224.124512</ele>
        <time>2011-04-01T12:42:34Z</time>
      </trkpt>
      <trkpt lat="47.17534" lon="5.47538">
        <ele>221.721191</ele>
        <time>2011-04-01T12:42:45Z</time>
      </trkpt>
      <trkpt lat="47.17578" lon="5.47568">
        <ele>219.798584</ele>
        <time>2011-04-01T12:42:53Z</time>
      </trkpt>
      <trkpt lat="47.17662" lon="5.47574">
        <ele>216.914673</ele>
        <time>2011-04-01T12:43:06Z</time>
      </trkpt>
      <trkpt lat="47.17712" lon="5.4757">
        <ele>214.991943</ele>
        <time>2011-04-01T12:43:14Z</time>
      </trkpt>
      <trkpt lat="47.17748" lon="5.47565">
        <ele>213.069336</ele>
        <time>2011-04-01T12:43:19Z</time>
      </trkpt>
      <trkpt lat="47.17768" lon="5.47558">
        <ele>212.108032</ele>
        <time>2011-04-01T12:43:22Z</time>
      </trkpt>
      <trkpt lat="47.17849" lon="5.47557">
        <ele>209.224121</ele>
        <time>2011-04-01T12:43:33Z</time>
      </trkpt>
      <trkpt lat="47.1794" lon="5.47615">
        <ele>207.782104</ele>
        <time>2011-04-01T12:43:47Z</time>
      </trkpt>
      <trkpt lat="47.17969" lon="5.47635">
        <ele>209.224121</ele>
        <time>2011-04-01T12:43:53Z</time>
      </trkpt>
      <trkpt lat="47.18008" lon="5.47643">
        <ele>211.146729</ele>
        <time>2011-04-01T12:44:06Z</time>
      </trkpt>
      <trkpt lat="47.1804" lon="5.47626">
        <ele>213.550049</ele>
        <time>2011-04-01T12:44:20Z</time>
      </trkpt>
      <trkpt lat="47.1807" lon="5.47605">
        <ele>214.991943</ele>
        <time>2011-04-01T12:44:35Z</time>
      </trkpt>
      <trkpt lat="47.18103" lon="5.47577">
        <ele>217.395386</ele>
        <time>2011-04-01T12:44:51Z</time>
      </trkpt>
      <trkpt lat="47.18131" lon="5.47558">
        <ele>219.317993</ele>
        <time>2011-04-01T12:45:04Z</time>
      </trkpt>
      <trkpt lat="47.1817" lon="5.47554">
        <ele>221.721191</ele>
        <time>2011-04-01T12:45:17Z</time>
      </trkpt>
      <trkpt lat="47.18221" lon="5.4756">
        <ele>223.643799</ele>
        <time>2011-04-01T12:45:35Z</time>
      </trkpt>
      <trkpt lat="47.1829" lon="5.47572">
        <ele>225.566528</ele>
        <time>2011-04-01T12:45:56Z</time>
      </trkpt>
      <trkpt lat="47.18353" lon="5.47565">
        <ele>225.566528</ele>
        <time>2011-04-01T12:46:14Z</time>
      </trkpt>
      <trkpt lat="47.18418" lon="5.47574">
        <ele>226.527832</ele>
        <time>2011-04-01T12:46:33Z</time>
      </trkpt>
      <trkpt lat="47.18508" lon="5.47606">
        <ele>227.008545</ele>
        <time>2011-04-01T12:46:58Z</time>
      </trkpt>
      <trkpt lat="47.18593" lon="5.47601">
        <ele>229.411743</ele>
        <time>2011-04-01T12:47:22Z</time>
      </trkpt>
      <trkpt lat="47.18631" lon="5.47593">
        <ele>232.776489</ele>
        <time>2011-04-01T12:47:37Z</time>
      </trkpt>
      <trkpt lat="47.18681" lon="5.47588">
        <ele>236.140991</ele>
        <time>2011-04-01T12:47:54Z</time>
      </trkpt>
      <trkpt lat="47.18744" lon="5.47591">
        <ele>238.544312</ele>
        <time>2011-04-01T12:48:13Z</time>
      </trkpt>
      <trkpt lat="47.18787" lon="5.47606">
        <ele>237.582886</ele>
        <time>2011-04-01T12:48:30Z</time>
      </trkpt>
      <trkpt lat="47.18827" lon="5.47628">
        <ele>236.140991</ele>
        <time>2011-04-01T12:48:46Z</time>
      </trkpt>
      <trkpt lat="47.18855" lon="5.47639">
        <ele>235.179688</ele>
        <time>2011-04-01T12:48:56Z</time>
      </trkpt>
      <trkpt lat="47.18931" lon="5.47667">
        <ele>231.814941</ele>
        <time>2011-04-01T12:49:10Z</time>
      </trkpt>
      <trkpt lat="47.19009" lon="5.4772">
        <ele>228.931152</ele>
        <time>2011-04-01T12:49:21Z</time>
      </trkpt>
      <trkpt lat="47.19084" lon="5.47784">
        <ele>225.085938</ele>
        <time>2011-04-01T12:49:32Z</time>
      </trkpt>
      <trkpt lat="47.19172" lon="5.47825">
        <ele>221.721191</ele>
        <time>2011-04-01T12:49:42Z</time>
      </trkpt>
      <trkpt lat="47.19303" lon="5.47872">
        <ele>218.356567</ele>
        <time>2011-04-01T12:49:59Z</time>
      </trkpt>
      <trkpt lat="47.1933" lon="5.47884">
        <ele>216.43396</ele>
        <time>2011-04-01T12:50:08Z</time>
      </trkpt>
      <trkpt lat="47.1933" lon="5.47885">
        <ele>215.953247</ele>
        <time>2011-04-01T12:50:12Z</time>
      </trkpt>
      <trkpt lat="47.19338" lon="5.47925">
        <ele>215.953247</ele>
        <time>2011-04-01T12:50:24Z</time>
      </trkpt>
      <trkpt lat="47.19354" lon="5.47961">
        <ele>214.991943</ele>
        <time>2011-04-01T12:50:30Z</time>
      </trkpt>
      <trkpt lat="47.19377" lon="5.47986">
        <ele>214.51123</ele>
        <time>2011-04-01T12:50:35Z</time>
      </trkpt>
      <trkpt lat="47.19377" lon="5.48041">
        <ele>214.03064</ele>
        <time>2011-04-01T12:50:42Z</time>
      </trkpt>
      <trkpt lat="47.19374" lon="5.48048">
        <ele>214.03064</ele>
        <time>2011-04-01T12:50:43Z</time>
      </trkpt>
      <trkpt lat="47.19345" lon="5.4811">
        <ele>215.472656</ele>
        <time>2011-04-01T12:50:53Z</time>
      </trkpt>
      <trkpt lat="47.19351" lon="5.4816">
        <ele>216.914673</ele>
        <time>2011-04-01T12:51:03Z</time>
      </trkpt>
      <trkpt lat="47.19358" lon="5.48167">
        <ele>216.914673</ele>
        <time>2011-04-01T12:51:05Z</time>
      </trkpt>
      <trkpt lat="47.19377" lon="5.48186">
        <ele>216.914673</ele>
        <time>2011-04-01T12:51:10Z</time>
      </trkpt>
      <trkpt lat="47.19414" lon="5.4824">
        <ele>217.395386</ele>
        <time>2011-04-01T12:51:22Z</time>
      </trkpt>
      <trkpt lat="47.19465" lon="5.48333">
        <ele>217.875977</ele>
        <time>2011-04-01T12:51:40Z</time>
      </trkpt>
      <trkpt lat="47.19541" lon="5.48464">
        <ele>215.953247</ele>
        <time>2011-04-01T12:52:02Z</time>
      </trkpt>
      <trkpt lat="47.19639" lon="5.48637">
        <ele>214.03064</ele>
        <time>2011-04-01T12:52:25Z</time>
      </trkpt>
      <trkpt lat="47.19741" lon="5.48815">
        <ele>211.146729</ele>
        <time>2011-04-01T12:52:47Z</time>
      </trkpt>
      <trkpt lat="47.19855" lon="5.49017">
        <ele>209.704834</ele>
        <time>2011-04-01T12:53:13Z</time>
      </trkpt>
      <trkpt lat="47.19923" lon="5.49148">
        <ele>210.185425</ele>
        <time>2011-04-01T12:53:32Z</time>
      </trkpt>
      <trkpt lat="47.19948" lon="5.49203">
        <ele>213.069336</ele>
        <time>2011-04-01T12:53:42Z</time>
      </trkpt>
      <trkpt lat="47.19971" lon="5.49266">
        <ele>216.43396</ele>
        <time>2011-04-01T12:53:53Z</time>
      </trkpt>
      <trkpt lat="47.19972" lon="5.49271">
        <ele>216.43396</ele>
        <time>2011-04-01T12:53:54Z</time>
      </trkpt>
      <trkpt lat="47.19981" lon="5.49298">
        <ele>217.875977</ele>
        <time>2011-04-01T12:53:59Z</time>
      </trkpt>
      <trkpt lat="47.20011" lon="5.49371">
        <ele>220.759888</ele>
        <time>2011-04-01T12:54:17Z</time>
      </trkpt>
      <trkpt lat="47.20057" lon="5.49454">
        <ele>224.124512</ele>
        <time>2011-04-01T12:54:39Z</time>
      </trkpt>
      <trkpt lat="47.20095" lon="5.4954">
        <ele>227.008545</ele>
        <time>2011-04-01T12:55:00Z</time>
      </trkpt>
      <trkpt lat="47.20154" lon="5.49629">
        <ele>228.931152</ele>
        <time>2011-04-01T12:55:23Z</time>
      </trkpt>
      <trkpt lat="47.20164" lon="5.49643">
        <ele>230.373047</ele>
        <time>2011-04-01T12:55:27Z</time>
      </trkpt>
      <trkpt lat="47.20209" lon="5.49698">
        <ele>230.85376</ele>
        <time>2011-04-01T12:55:43Z</time>
      </trkpt>
      <trkpt lat="47.20262" lon="5.4973">
        <ele>234.218384</ele>
        <time>2011-04-01T12:56:00Z</time>
      </trkpt>
      <trkpt lat="47.20307" lon="5.49754">
        <ele>237.582886</ele>
        <time>2011-04-01T12:56:15Z</time>
      </trkpt>
      <trkpt lat="47.20362" lon="5.49806">
        <ele>240.947632</ele>
        <time>2011-04-01T12:56:36Z</time>
      </trkpt>
      <trkpt lat="47.20382" lon="5.49863">
        <ele>241.908936</ele>
        <time>2011-04-01T12:56:50Z</time>
      </trkpt>
      <trkpt lat="47.20377" lon="5.49927">
        <ele>241.908936</ele>
        <time>2011-04-01T12:57:06Z</time>
      </trkpt>
      <trkpt lat="47.20382" lon="5.49939">
        <ele>241.428223</ele>
        <time>2011-04-01T12:57:11Z</time>
      </trkpt>
      <trkpt lat="47.20382" lon="5.4995">
        <ele>241.428223</ele>
        <time>2011-04-01T12:57:15Z</time>
      </trkpt>
      <trkpt lat="47.20384" lon="5.4995">
        <ele>241.428223</ele>
        <time>2011-04-01T12:57:35Z</time>
      </trkpt>
      <trkpt lat="47.20384" lon="5.4995">
        <ele>241.428223</ele>
        <time>2011-04-01T12:58:13Z</time>
      </trkpt>
      <trkpt lat="47.20391" lon="5.4995">
        <ele>241.428223</ele>
        <time>2011-04-01T12:58:18Z</time>
      </trkpt>
      <trkpt lat="47.2045" lon="5.49985">
        <ele>243.35083</ele>
        <time>2011-04-01T12:58:37Z</time>
      </trkpt>
      <trkpt lat="47.2049" lon="5.50029">
        <ele>241.908936</ele>
        <time>2011-04-01T12:58:52Z</time>
      </trkpt>
      <trkpt lat="47.2049" lon="5.50028">
        <ele>241.908936</ele>
        <time>2011-04-01T12:59:02Z</time>
      </trkpt>
      <trkpt lat="47.20517" lon="5.50039">
        <ele>239.986206</ele>
        <time>2011-04-01T12:59:14Z</time>
      </trkpt>
      <trkpt lat="47.20539" lon="5.5005">
        <ele>239.024902</ele>
        <time>2011-04-01T12:59:20Z</time>
      </trkpt>
      <trkpt lat="47.20581" lon="5.50085">
        <ele>235.660278</ele>
        <time>2011-04-01T12:59:27Z</time>
      </trkpt>
      <trkpt lat="47.20622" lon="5.50098">
        <ele>231.814941</ele>
        <time>2011-04-01T12:59:32Z</time>
      </trkpt>
      <trkpt lat="47.2063" lon="5.50098">
        <ele>230.85376</ele>
        <time>2011-04-01T12:59:33Z</time>
      </trkpt>
      <trkpt lat="47.20663" lon="5.50094">
        <ele>228.931152</ele>
        <time>2011-04-01T12:59:38Z</time>
      </trkpt>
      <trkpt lat="47.20668" lon="5.50093">
        <ele>228.450439</ele>
        <time>2011-04-01T12:59:39Z</time>
      </trkpt>
      <trkpt lat="47.20761" lon="5.50129">
        <ele>226.527832</ele>
        <time>2011-04-01T12:59:55Z</time>
      </trkpt>
      <trkpt lat="47.20866" lon="5.50191">
        <ele>224.124512</ele>
        <time>2011-04-01T13:00:16Z</time>
      </trkpt>
      <trkpt lat="47.20937" lon="5.50215">
        <ele>220.759888</ele>
        <time>2011-04-01T13:00:27Z</time>
      </trkpt>
      <trkpt lat="47.20969" lon="5.50222">
        <ele>218.83728</ele>
        <time>2011-04-01T13:00:31Z</time>
      </trkpt>
      <trkpt lat="47.21009" lon="5.502">
        <ele>216.914673</ele>
        <time>2011-04-01T13:00:36Z</time>
      </trkpt>
      <trkpt lat="47.21066" lon="5.50109">
        <ele>213.550049</ele>
        <time>2011-04-01T13:00:46Z</time>
      </trkpt>
      <trkpt lat="47.21071" lon="5.501">
        <ele>213.069336</ele>
        <time>2011-04-01T13:00:47Z</time>
      </trkpt>
      <trkpt lat="47.21112" lon="5.50088">
        <ele>212.588623</ele>
        <time>2011-04-01T13:00:53Z</time>
      </trkpt>
      <trkpt lat="47.21231" lon="5.50177">
        <ele>211.627441</ele>
        <time>2011-04-01T13:01:14Z</time>
      </trkpt>
      <trkpt lat="47.21294" lon="5.5023">
        <ele>211.627441</ele>
        <time>2011-04-01T13:01:29Z</time>
      </trkpt>
      <trkpt lat="47.21321" lon="5.50253">
        <ele>212.108032</ele>
        <time>2011-04-01T13:01:35Z</time>
      </trkpt>
      <trkpt lat="47.21353" lon="5.50265">
        <ele>212.588623</ele>
        <time>2011-04-01T13:01:42Z</time>
      </trkpt>
      <trkpt lat="47.21455" lon="5.50261">
        <ele>211.627441</ele>
        <time>2011-04-01T13:02:01Z</time>
      </trkpt>
      <trkpt lat="47.21643" lon="5.50257">
        <ele>214.03064</ele>
        <time>2011-04-01T13:02:32Z</time>
      </trkpt>
      <trkpt lat="47.21777" lon="5.50254">
        <ele>213.550049</ele>
        <time>2011-04-01T13:02:56Z</time>
      </trkpt>
      <trkpt lat="47.2185" lon="5.50253">
        <ele>209.704834</ele>
        <time>2011-04-01T13:03:07Z</time>
      </trkpt>
      <trkpt lat="47.21905" lon="5.50252">
        <ele>206.340088</ele>
        <time>2011-04-01T13:03:16Z</time>
      </trkpt>
      <trkpt lat="47.2192" lon="5.50252">
        <ele>205.378784</ele>
        <time>2011-04-01T13:03:20Z</time>
      </trkpt>
      <trkpt lat="47.21922" lon="5.5027">
        <ele>205.859497</ele>
        <time>2011-04-01T13:03:25Z</time>
      </trkpt>
      <trkpt lat="47.2191" lon="5.50343">
        <ele>207.301392</ele>
        <time>2011-04-01T13:03:41Z</time>
      </trkpt>
      <trkpt lat="47.21903" lon="5.5043">
        <ele>210.185425</ele>
        <time>2011-04-01T13:03:59Z</time>
      </trkpt>
      <trkpt lat="47.21898" lon="5.5051">
        <ele>213.069336</ele>
        <time>2011-04-01T13:04:12Z</time>
      </trkpt>
      <trkpt lat="47.2189" lon="5.50622">
        <ele>214.51123</ele>
        <time>2011-04-01T13:04:30Z</time>
      </trkpt>
      <trkpt lat="47.2188" lon="5.50755">
        <ele>214.51123</ele>
        <time>2011-04-01T13:04:51Z</time>
      </trkpt>
      <trkpt lat="47.219" lon="5.50879">
        <ele>211.146729</ele>
        <time>2011-04-01T13:05:05Z</time>
      </trkpt>
      <trkpt lat="47.21922" lon="5.51012">
        <ele>208.743408</ele>
        <time>2011-04-01T13:05:17Z</time>
      </trkpt>
      <trkpt lat="47.219" lon="5.51141">
        <ele>210.666016</ele>
        <time>2011-04-01T13:05:32Z</time>
      </trkpt>
      <trkpt lat="47.21873" lon="5.51271">
        <ele>211.627441</ele>
        <time>2011-04-01T13:05:51Z</time>
      </trkpt>
      <trkpt lat="47.21836" lon="5.51374">
        <ele>209.224121</ele>
        <time>2011-04-01T13:06:03Z</time>
      </trkpt>
      <trkpt lat="47.21757" lon="5.51548">
        <ele>206.820679</ele>
        <time>2011-04-01T13:06:24Z</time>
      </trkpt>
      <trkpt lat="47.21755" lon="5.51556">
        <ele>207.301392</ele>
        <time>2011-04-01T13:06:25Z</time>
      </trkpt>
      <trkpt lat="47.2176" lon="5.51681">
        <ele>208.262817</ele>
        <time>2011-04-01T13:06:40Z</time>
      </trkpt>
      <trkpt lat="47.21748" lon="5.51807">
        <ele>208.743408</ele>
        <time>2011-04-01T13:06:57Z</time>
      </trkpt>
      <trkpt lat="47.21747" lon="5.51813">
        <ele>209.224121</ele>
        <time>2011-04-01T13:06:58Z</time>
      </trkpt>
      <trkpt lat="47.21753" lon="5.51841">
        <ele>208.743408</ele>
        <time>2011-04-01T13:07:04Z</time>
      </trkpt>
      <trkpt lat="47.21762" lon="5.51853">
        <ele>209.224121</ele>
        <time>2011-04-01T13:07:07Z</time>
      </trkpt>
      <trkpt lat="47.21786" lon="5.51887">
        <ele>208.743408</ele>
        <time>2011-04-01T13:07:14Z</time>
      </trkpt>
      <trkpt lat="47.21795" lon="5.51903">
        <ele>208.743408</ele>
        <time>2011-04-01T13:07:17Z</time>
      </trkpt>
      <trkpt lat="47.21811" lon="5.51959">
        <ele>209.224121</ele>
        <time>2011-04-01T13:07:26Z</time>
      </trkpt>
      <trkpt lat="47.21824" lon="5.51988">
        <ele>209.704834</ele>
        <time>2011-04-01T13:07:31Z</time>
      </trkpt>
      <trkpt lat="47.21818" lon="5.52029">
        <ele>211.146729</ele>
        <time>2011-04-01T13:07:39Z</time>
      </trkpt>
      <trkpt lat="47.21793" lon="5.52067">
        <ele>212.588623</ele>
        <time>2011-04-01T13:07:48Z</time>
      </trkpt>
      <trkpt lat="47.21786" lon="5.52093">
        <ele>213.550049</ele>
        <time>2011-04-01T13:07:53Z</time>
      </trkpt>
      <trkpt lat="47.21786" lon="5.52123">
        <ele>214.51123</ele>
        <time>2011-04-01T13:07:58Z</time>
      </trkpt>
      <trkpt lat="47.21775" lon="5.52231">
        <ele>215.472656</ele>
        <time>2011-04-01T13:08:15Z</time>
      </trkpt>
      <trkpt lat="47.21753" lon="5.52323">
        <ele>219.317993</ele>
        <time>2011-04-01T13:08:31Z</time>
      </trkpt>
      <trkpt lat="47.21768" lon="5.52386">
        <ele>222.201782</ele>
        <time>2011-04-01T13:08:44Z</time>
      </trkpt>
      <trkpt lat="47.21815" lon="5.52475">
        <ele>224.124512</ele>
        <time>2011-04-01T13:09:03Z</time>
      </trkpt>
      <trkpt lat="47.21823" lon="5.52561">
        <ele>226.047119</ele>
        <time>2011-04-01T13:09:18Z</time>
      </trkpt>
      <trkpt lat="47.21791" lon="5.52688">
        <ele>227.969727</ele>
        <time>2011-04-01T13:09:42Z</time>
      </trkpt>
      <trkpt lat="47.21776" lon="5.52788">
        <ele>230.85376</ele>
        <time>2011-04-01T13:10:01Z</time>
      </trkpt>
      <trkpt lat="47.21804" lon="5.52851">
        <ele>233.25708</ele>
        <time>2011-04-01T13:10:16Z</time>
      </trkpt>
      <trkpt lat="47.21843" lon="5.5289">
        <ele>236.140991</ele>
        <time>2011-04-01T13:10:30Z</time>
      </trkpt>
      <trkpt lat="47.21899" lon="5.52949">
        <ele>239.505493</ele>
        <time>2011-04-01T13:10:50Z</time>
      </trkpt>
      <trkpt lat="47.21947" lon="5.53001">
        <ele>242.870239</ele>
        <time>2011-04-01T13:11:08Z</time>
      </trkpt>
      <trkpt lat="47.22003" lon="5.5306">
        <ele>246.234863</ele>
        <time>2011-04-01T13:11:28Z</time>
      </trkpt>
      <trkpt lat="47.22075" lon="5.53121">
        <ele>248.638184</ele>
        <time>2011-04-01T13:11:49Z</time>
      </trkpt>
      <trkpt lat="47.2215" lon="5.53192">
        <ele>250.560791</ele>
        <time>2011-04-01T13:12:13Z</time>
      </trkpt>
      <trkpt lat="47.22193" lon="5.53296">
        <ele>253.444702</ele>
        <time>2011-04-01T13:12:35Z</time>
      </trkpt>
      <trkpt lat="47.22261" lon="5.53426">
        <ele>255.848022</ele>
        <time>2011-04-01T13:13:03Z</time>
      </trkpt>
      <trkpt lat="47.22283" lon="5.53472">
        <ele>256.328735</ele>
        <time>2011-04-01T13:13:14Z</time>
      </trkpt>
      <trkpt lat="47.22285" lon="5.53488">
        <ele>257.290039</ele>
        <time>2011-04-01T13:13:26Z</time>
      </trkpt>
      <trkpt lat="47.22286" lon="5.53488">
        <ele>258.731934</ele>
        <time>2011-04-01T13:17:10Z</time>
      </trkpt>
      <trkpt lat="47.22293" lon="5.53485">
        <ele>258.731934</ele>
        <time>2011-04-01T13:17:14Z</time>
      </trkpt>
      <trkpt lat="47.22323" lon="5.53473">
        <ele>257.290039</ele>
        <time>2011-04-01T13:17:23Z</time>
      </trkpt>
      <trkpt lat="47.22337" lon="5.53454">
        <ele>255.848022</ele>
        <time>2011-04-01T13:17:27Z</time>
      </trkpt>
      <trkpt lat="47.22349" lon="5.53419">
        <ele>254.406006</ele>
        <time>2011-04-01T13:17:31Z</time>
      </trkpt>
      <trkpt lat="47.22353" lon="5.5341">
        <ele>254.406006</ele>
        <time>2011-04-01T13:17:32Z</time>
      </trkpt>
      <trkpt lat="47.22406" lon="5.53364">
        <ele>252.002808</ele>
        <time>2011-04-01T13:17:39Z</time>
      </trkpt>
      <trkpt lat="47.22436" lon="5.53355">
        <ele>250.560791</ele>
        <time>2011-04-01T13:17:42Z</time>
      </trkpt>
      <trkpt lat="47.22486" lon="5.53339">
        <ele>247.196045</ele>
        <time>2011-04-01T13:17:47Z</time>
      </trkpt>
      <trkpt lat="47.22497" lon="5.53336">
        <ele>247.196045</ele>
        <time>2011-04-01T13:17:48Z</time>
      </trkpt>
      <trkpt lat="47.22558" lon="5.53318">
        <ele>244.312256</ele>
        <time>2011-04-01T13:17:54Z</time>
      </trkpt>
      <trkpt lat="47.22637" lon="5.53289">
        <ele>240.947632</ele>
        <time>2011-04-01T13:18:04Z</time>
      </trkpt>
      <trkpt lat="47.22712" lon="5.53237">
        <ele>239.024902</ele>
        <time>2011-04-01T13:18:15Z</time>
      </trkpt>
      <trkpt lat="47.2279" lon="5.53244">
        <ele>236.140991</ele>
        <time>2011-04-01T13:18:26Z</time>
      </trkpt>
      <trkpt lat="47.22888" lon="5.53235">
        <ele>236.621704</ele>
        <time>2011-04-01T13:18:44Z</time>
      </trkpt>
      <trkpt lat="47.22977" lon="5.53182">
        <ele>238.063599</ele>
        <time>2011-04-01T13:19:04Z</time>
      </trkpt>
      <trkpt lat="47.2306" lon="5.53096">
        <ele>239.505493</ele>
        <time>2011-04-01T13:19:25Z</time>
      </trkpt>
      <trkpt lat="47.23112" lon="5.52988">
        <ele>240.947632</ele>
        <time>2011-04-01T13:19:44Z</time>
      </trkpt>
      <trkpt lat="47.23163" lon="5.52886">
        <ele>238.544312</ele>
        <time>2011-04-01T13:19:58Z</time>
      </trkpt>
      <trkpt lat="47.23202" lon="5.52874">
        <ele>237.582886</ele>
        <time>2011-04-01T13:20:04Z</time>
      </trkpt>
      <trkpt lat="47.23319" lon="5.52929">
        <ele>236.621704</ele>
        <time>2011-04-01T13:20:23Z</time>
      </trkpt>
      <trkpt lat="47.2343" lon="5.52955">
        <ele>236.140991</ele>
        <time>2011-04-01T13:20:42Z</time>
      </trkpt>
      <trkpt lat="47.23605" lon="5.5297">
        <ele>233.25708</ele>
        <time>2011-04-01T13:21:08Z</time>
      </trkpt>
      <trkpt lat="47.23658" lon="5.5298">
        <ele>234.218384</ele>
        <time>2011-04-01T13:21:16Z</time>
      </trkpt>
      <trkpt lat="47.23688" lon="5.52982">
        <ele>234.699097</ele>
        <time>2011-04-01T13:21:21Z</time>
      </trkpt>
      <trkpt lat="47.23796" lon="5.52939">
        <ele>233.25708</ele>
        <time>2011-04-01T13:21:40Z</time>
      </trkpt>
      <trkpt lat="47.2392" lon="5.52939">
        <ele>230.373047</ele>
        <time>2011-04-01T13:21:57Z</time>
      </trkpt>
      <trkpt lat="47.24019" lon="5.52979">
        <ele>227.008545</ele>
        <time>2011-04-01T13:22:12Z</time>
      </trkpt>
      <trkpt lat="47.24136" lon="5.53029">
        <ele>224.124512</ele>
        <time>2011-04-01T13:22:29Z</time>
      </trkpt>
      <trkpt lat="47.24214" lon="5.53068">
        <ele>221.240601</ele>
        <time>2011-04-01T13:22:40Z</time>
      </trkpt>
      <trkpt lat="47.24322" lon="5.53097">
        <ele>218.83728</ele>
        <time>2011-04-01T13:22:55Z</time>
      </trkpt>
      <trkpt lat="47.24398" lon="5.53153">
        <ele>217.395386</ele>
        <time>2011-04-01T13:23:09Z</time>
      </trkpt>
      <trkpt lat="47.24431" lon="5.53181">
        <ele>216.43396</ele>
        <time>2011-04-01T13:23:15Z</time>
      </trkpt>
      <trkpt lat="47.24443" lon="5.53245">
        <ele>215.953247</ele>
        <time>2011-04-01T13:23:23Z</time>
      </trkpt>
      <trkpt lat="47.2444" lon="5.53253">
        <ele>215.472656</ele>
        <time>2011-04-01T13:23:24Z</time>
      </trkpt>
      <trkpt lat="47.24431" lon="5.53286">
        <ele>216.43396</ele>
        <time>2011-04-01T13:23:28Z</time>
      </trkpt>
      <trkpt lat="47.24443" lon="5.53345">
        <ele>215.953247</ele>
        <time>2011-04-01T13:23:36Z</time>
      </trkpt>
      <trkpt lat="47.24456" lon="5.53355">
        <ele>215.953247</ele>
        <time>2011-04-01T13:23:39Z</time>
      </trkpt>
      <trkpt lat="47.24491" lon="5.53382">
        <ele>215.953247</ele>
        <time>2011-04-01T13:23:47Z</time>
      </trkpt>
      <trkpt lat="47.24522" lon="5.53439">
        <ele>217.395386</ele>
        <time>2011-04-01T13:23:57Z</time>
      </trkpt>
      <trkpt lat="47.24537" lon="5.53457">
        <ele>217.875977</ele>
        <time>2011-04-01T13:24:01Z</time>
      </trkpt>
      <trkpt lat="47.24603" lon="5.53504">
        <ele>221.240601</ele>
        <time>2011-04-01T13:24:17Z</time>
      </trkpt>
      <trkpt lat="47.2469" lon="5.53606">
        <ele>223.643799</ele>
        <time>2011-04-01T13:24:41Z</time>
      </trkpt>
      <trkpt lat="47.2478" lon="5.53687">
        <ele>224.124512</ele>
        <time>2011-04-01T13:25:03Z</time>
      </trkpt>
      <trkpt lat="47.24894" lon="5.53794">
        <ele>224.124512</ele>
        <time>2011-04-01T13:25:29Z</time>
      </trkpt>
      <trkpt lat="47.25024" lon="5.53905">
        <ele>226.047119</ele>
        <time>2011-04-01T13:25:58Z</time>
      </trkpt>
      <trkpt lat="47.25065" lon="5.5395">
        <ele>225.566528</ele>
        <time>2011-04-01T13:26:11Z</time>
      </trkpt>
      <trkpt lat="47.25135" lon="5.54053">
        <ele>226.527832</ele>
        <time>2011-04-01T13:26:33Z</time>
      </trkpt>
      <trkpt lat="47.25191" lon="5.54113">
        <ele>227.969727</ele>
        <time>2011-04-01T13:26:48Z</time>
      </trkpt>
      <trkpt lat="47.25229" lon="5.54121">
        <ele>228.450439</ele>
        <time>2011-04-01T13:26:56Z</time>
      </trkpt>
      <trkpt lat="47.2526" lon="5.54097">
        <ele>229.411743</ele>
        <time>2011-04-01T13:27:03Z</time>
      </trkpt>
      <trkpt lat="47.25279" lon="5.54088">
        <ele>229.892334</ele>
        <time>2011-04-01T13:27:07Z</time>
      </trkpt>
      <trkpt lat="47.25349" lon="5.54093">
        <ele>232.776489</ele>
        <time>2011-04-01T13:27:22Z</time>
      </trkpt>
      <trkpt lat="47.25407" lon="5.54102">
        <ele>235.660278</ele>
        <time>2011-04-01T13:27:37Z</time>
      </trkpt>
      <trkpt lat="47.25443" lon="5.54124">
        <ele>239.024902</ele>
        <time>2011-04-01T13:27:48Z</time>
      </trkpt>
      <trkpt lat="47.25497" lon="5.54191">
        <ele>241.428223</ele>
        <time>2011-04-01T13:28:07Z</time>
      </trkpt>
      <trkpt lat="47.25559" lon="5.54275">
        <ele>240.947632</ele>
        <time>2011-04-01T13:28:30Z</time>
      </trkpt>
      <trkpt lat="47.25593" lon="5.54336">
        <ele>240.467041</ele>
        <time>2011-04-01T13:28:48Z</time>
      </trkpt>
      <trkpt lat="47.25612" lon="5.5437">
        <ele>239.505493</ele>
        <time>2011-04-01T13:29:02Z</time>
      </trkpt>
      <trkpt lat="47.25628" lon="5.54397">
        <ele>239.986206</ele>
        <time>2011-04-01T13:31:04Z</time>
      </trkpt>
      <trkpt lat="47.25656" lon="5.54446">
        <ele>239.505493</ele>
        <time>2011-04-01T13:31:14Z</time>
      </trkpt>
      <trkpt lat="47.2566" lon="5.54482">
        <ele>239.024902</ele>
        <time>2011-04-01T13:31:20Z</time>
      </trkpt>
      <trkpt lat="47.25655" lon="5.54506">
        <ele>240.467041</ele>
        <time>2011-04-01T13:31:24Z</time>
      </trkpt>
      <trkpt lat="47.25668" lon="5.54551">
        <ele>239.986206</ele>
        <time>2011-04-01T13:31:32Z</time>
      </trkpt>
      <trkpt lat="47.25773" lon="5.54626">
        <ele>238.544312</ele>
        <time>2011-04-01T13:31:52Z</time>
      </trkpt>
      <trkpt lat="47.25847" lon="5.54705">
        <ele>237.582886</ele>
        <time>2011-04-01T13:32:09Z</time>
      </trkpt>
      <trkpt lat="47.25921" lon="5.54783">
        <ele>234.699097</ele>
        <time>2011-04-01T13:32:23Z</time>
      </trkpt>
      <trkpt lat="47.26019" lon="5.54893">
        <ele>231.814941</ele>
        <time>2011-04-01T13:32:43Z</time>
      </trkpt>
      <trkpt lat="47.26034" lon="5.54915">
        <ele>229.892334</ele>
        <time>2011-04-01T13:32:51Z</time>
      </trkpt>
      <trkpt lat="47.26035" lon="5.54917">
        <ele>229.892334</ele>
        <time>2011-04-01T13:32:54Z</time>
      </trkpt>
      <trkpt lat="47.26041" lon="5.54915">
        <ele>230.373047</ele>
        <time>2011-04-01T13:32:58Z</time>
      </trkpt>
      <trkpt lat="47.26066" lon="5.54859">
        <ele>232.776489</ele>
        <time>2011-04-01T13:33:14Z</time>
      </trkpt>
      <trkpt lat="47.26102" lon="5.54772">
        <ele>236.140991</ele>
        <time>2011-04-01T13:33:32Z</time>
      </trkpt>
      <trkpt lat="47.26164" lon="5.54623">
        <ele>237.582886</ele>
        <time>2011-04-01T13:33:57Z</time>
      </trkpt>
      <trkpt lat="47.26215" lon="5.54494">
        <ele>236.621704</ele>
        <time>2011-04-01T13:34:15Z</time>
      </trkpt>
      <trkpt lat="47.26248" lon="5.54473">
        <ele>236.140991</ele>
        <time>2011-04-01T13:34:22Z</time>
      </trkpt>
      <trkpt lat="47.26275" lon="5.54483">
        <ele>236.140991</ele>
        <time>2011-04-01T13:34:27Z</time>
      </trkpt>
      <trkpt lat="47.26295" lon="5.54505">
        <ele>236.140991</ele>
        <time>2011-04-01T13:34:32Z</time>
      </trkpt>
      <trkpt lat="47.26392" lon="5.54675">
        <ele>236.621704</ele>
        <time>2011-04-01T13:35:01Z</time>
      </trkpt>
      <trkpt lat="47.26461" lon="5.54793">
        <ele>233.25708</ele>
        <time>2011-04-01T13:35:18Z</time>
      </trkpt>
      <trkpt lat="47.26519" lon="5.54893">
        <ele>229.892334</ele>
        <time>2011-04-01T13:35:28Z</time>
      </trkpt>
      <trkpt lat="47.26558" lon="5.54959">
        <ele>226.527832</ele>
        <time>2011-04-01T13:35:34Z</time>
      </trkpt>
      <trkpt lat="47.26564" lon="5.5497">
        <ele>226.527832</ele>
        <time>2011-04-01T13:35:35Z</time>
      </trkpt>
      <trkpt lat="47.26596" lon="5.55024">
        <ele>224.124512</ele>
        <time>2011-04-01T13:35:40Z</time>
      </trkpt>
      <trkpt lat="47.26653" lon="5.55121">
        <ele>220.759888</ele>
        <time>2011-04-01T13:35:49Z</time>
      </trkpt>
      <trkpt lat="47.26703" lon="5.55206">
        <ele>217.875977</ele>
        <time>2011-04-01T13:35:57Z</time>
      </trkpt>
      <trkpt lat="47.26776" lon="5.55333">
        <ele>214.51123</ele>
        <time>2011-04-01T13:36:10Z</time>
      </trkpt>
      <trkpt lat="47.26887" lon="5.55523">
        <ele>214.03064</ele>
        <time>2011-04-01T13:36:33Z</time>
      </trkpt>
      <trkpt lat="47.26893" lon="5.5553">
        <ele>214.03064</ele>
        <time>2011-04-01T13:36:34Z</time>
      </trkpt>
      <trkpt lat="47.2694" lon="5.55553">
        <ele>213.069336</ele>
        <time>2011-04-01T13:36:41Z</time>
      </trkpt>
      <trkpt lat="47.26955" lon="5.55553">
        <ele>214.03064</ele>
        <time>2011-04-01T13:36:43Z</time>
      </trkpt>
      <trkpt lat="47.27063" lon="5.55534">
        <ele>213.069336</ele>
        <time>2011-04-01T13:36:57Z</time>
      </trkpt>
      <trkpt lat="47.27161" lon="5.55561">
        <ele>210.185425</ele>
        <time>2011-04-01T13:37:09Z</time>
      </trkpt>
      <trkpt lat="47.27191" lon="5.5558">
        <ele>209.224121</ele>
        <time>2011-04-01T13:37:13Z</time>
      </trkpt>
      <trkpt lat="47.27225" lon="5.55668">
        <ele>207.782104</ele>
        <time>2011-04-01T13:37:21Z</time>
      </trkpt>
      <trkpt lat="47.27216" lon="5.55721">
        <ele>207.782104</ele>
        <time>2011-04-01T13:37:25Z</time>
      </trkpt>
      <trkpt lat="47.27164" lon="5.55882">
        <ele>204.41748</ele>
        <time>2011-04-01T13:37:39Z</time>
      </trkpt>
      <trkpt lat="47.27162" lon="5.55893">
        <ele>204.41748</ele>
        <time>2011-04-01T13:37:40Z</time>
      </trkpt>
      <trkpt lat="47.27157" lon="5.55916">
        <ele>203.456177</ele>
        <time>2011-04-01T13:37:42Z</time>
      </trkpt>
      <trkpt lat="47.27155" lon="5.55962">
        <ele>202.975464</ele>
        <time>2011-04-01T13:37:46Z</time>
      </trkpt>
      <trkpt lat="47.27179" lon="5.5608">
        <ele>201.052856</ele>
        <time>2011-04-01T13:37:57Z</time>
      </trkpt>
      <trkpt lat="47.27252" lon="5.56293">
        <ele>199.130127</ele>
        <time>2011-04-01T13:38:19Z</time>
      </trkpt>
      <trkpt lat="47.27268" lon="5.56316">
        <ele>198.649536</ele>
        <time>2011-04-01T13:38:22Z</time>
      </trkpt>
      <trkpt lat="47.27292" lon="5.56337">
        <ele>198.649536</ele>
        <time>2011-04-01T13:38:26Z</time>
      </trkpt>
      <trkpt lat="47.27373" lon="5.56372">
        <ele>198.168945</ele>
        <time>2011-04-01T13:38:42Z</time>
      </trkpt>
      <trkpt lat="47.27379" lon="5.56377">
        <ele>198.168945</ele>
        <time>2011-04-01T13:38:53Z</time>
      </trkpt>
      <trkpt lat="47.2738" lon="5.56381">
        <ele>198.649536</ele>
        <time>2011-04-01T13:39:03Z</time>
      </trkpt>
      <trkpt lat="47.27416" lon="5.56387">
        <ele>198.649536</ele>
        <time>2011-04-01T13:39:15Z</time>
      </trkpt>
      <trkpt lat="47.27455" lon="5.564">
        <ele>199.61084</ele>
        <time>2011-04-01T13:39:24Z</time>
      </trkpt>
      <trkpt lat="47.27469" lon="5.56404">
        <ele>199.130127</ele>
        <time>2011-04-01T13:39:27Z</time>
      </trkpt>
      <trkpt lat="47.27554" lon="5.56449">
        <ele>200.572266</ele>
        <time>2011-04-01T13:39:44Z</time>
      </trkpt>
      <trkpt lat="47.27637" lon="5.56487">
        <ele>200.572266</ele>
        <time>2011-04-01T13:40:01Z</time>
      </trkpt>
      <trkpt lat="47.27711" lon="5.56522">
        <ele>200.091675</ele>
        <time>2011-04-01T13:40:19Z</time>
      </trkpt>
      <trkpt lat="47.27713" lon="5.56526">
        <ele>200.091675</ele>
        <time>2011-04-01T13:40:20Z</time>
      </trkpt>
      <trkpt lat="47.27699" lon="5.56567">
        <ele>198.649536</ele>
        <time>2011-04-01T13:40:30Z</time>
      </trkpt>
      <trkpt lat="47.27677" lon="5.5661">
        <ele>197.688232</ele>
        <time>2011-04-01T13:40:44Z</time>
      </trkpt>
      <trkpt lat="47.27675" lon="5.56611">
        <ele>197.20752</ele>
        <time>2011-04-01T13:41:04Z</time>
      </trkpt>
      <trkpt lat="47.27676" lon="5.56612">
        <ele>197.688232</ele>
        <time>2011-04-01T13:42:25Z</time>
      </trkpt>
      <trkpt lat="47.27676" lon="5.56616">
        <ele>199.61084</ele>
        <time>2011-04-01T13:52:23Z</time>
      </trkpt>
      <trkpt lat="47.27684" lon="5.56609">
        <ele>199.61084</ele>
        <time>2011-04-01T13:52:29Z</time>
      </trkpt>
      <trkpt lat="47.27711" lon="5.56555">
        <ele>200.572266</ele>
        <time>2011-04-01T13:52:44Z</time>
      </trkpt>
      <trkpt lat="47.27718" lon="5.5654">
        <ele>202.014282</ele>
        <time>2011-04-01T13:52:49Z</time>
      </trkpt>
      <trkpt lat="47.27725" lon="5.56536">
        <ele>202.014282</ele>
        <time>2011-04-01T13:52:55Z</time>
      </trkpt>
      <trkpt lat="47.2777" lon="5.56553">
        <ele>202.975464</ele>
        <time>2011-04-01T13:53:11Z</time>
      </trkpt>
      <trkpt lat="47.27784" lon="5.56559">
        <ele>202.494873</ele>
        <time>2011-04-01T13:53:15Z</time>
      </trkpt>
      <trkpt lat="47.27785" lon="5.56596">
        <ele>201.533569</ele>
        <time>2011-04-01T13:53:21Z</time>
      </trkpt>
      <trkpt lat="47.27793" lon="5.56706">
        <ele>199.61084</ele>
        <time>2011-04-01T13:53:35Z</time>
      </trkpt>
      <trkpt lat="47.2782" lon="5.56783">
        <ele>199.61084</ele>
        <time>2011-04-01T13:53:48Z</time>
      </trkpt>
      <trkpt lat="47.27829" lon="5.56803">
        <ele>199.61084</ele>
        <time>2011-04-01T13:53:52Z</time>
      </trkpt>
      <trkpt lat="47.27849" lon="5.56868">
        <ele>200.091675</ele>
        <time>2011-04-01T13:54:04Z</time>
      </trkpt>
      <trkpt lat="47.27863" lon="5.5689">
        <ele>201.533569</ele>
        <time>2011-04-01T13:54:11Z</time>
      </trkpt>
      <trkpt lat="47.2785" lon="5.56936">
        <ele>202.494873</ele>
        <time>2011-04-01T13:54:22Z</time>
      </trkpt>
      <trkpt lat="47.27821" lon="5.57016">
        <ele>201.052856</ele>
        <time>2011-04-01T13:54:35Z</time>
      </trkpt>
      <trkpt lat="47.278" lon="5.57055">
        <ele>200.572266</ele>
        <time>2011-04-01T13:54:42Z</time>
      </trkpt>
      <trkpt lat="47.27784" lon="5.57073">
        <ele>200.572266</ele>
        <time>2011-04-01T13:54:46Z</time>
      </trkpt>
      <trkpt lat="47.27694" lon="5.57138">
        <ele>200.572266</ele>
        <time>2011-04-01T13:55:07Z</time>
      </trkpt>
      <trkpt lat="47.27686" lon="5.57147">
        <ele>201.052856</ele>
        <time>2011-04-01T13:55:09Z</time>
      </trkpt>
      <trkpt lat="47.27673" lon="5.57168">
        <ele>201.052856</ele>
        <time>2011-04-01T13:55:13Z</time>
      </trkpt>
      <trkpt lat="47.27668" lon="5.57197">
        <ele>200.572266</ele>
        <time>2011-04-01T13:55:17Z</time>
      </trkpt>
      <trkpt lat="47.27647" lon="5.57272">
        <ele>201.533569</ele>
        <time>2011-04-01T13:55:29Z</time>
      </trkpt>
      <trkpt lat="47.27605" lon="5.57323">
        <ele>203.456177</ele>
        <time>2011-04-01T13:55:44Z</time>
      </trkpt>
      <trkpt lat="47.27574" lon="5.57399">
        <ele>205.859497</ele>
        <time>2011-04-01T13:56:02Z</time>
      </trkpt>
      <trkpt lat="47.27557" lon="5.57485">
        <ele>209.224121</ele>
        <time>2011-04-01T13:56:23Z</time>
      </trkpt>
      <trkpt lat="47.27548" lon="5.57547">
        <ele>212.108032</ele>
        <time>2011-04-01T13:56:38Z</time>
      </trkpt>
      <trkpt lat="47.27537" lon="5.57594">
        <ele>215.472656</ele>
        <time>2011-04-01T13:56:52Z</time>
      </trkpt>
      <trkpt lat="47.27521" lon="5.57645">
        <ele>218.356567</ele>
        <time>2011-04-01T13:57:07Z</time>
      </trkpt>
      <trkpt lat="47.2751" lon="5.57688">
        <ele>221.240601</ele>
        <time>2011-04-01T13:57:20Z</time>
      </trkpt>
      <trkpt lat="47.27494" lon="5.57748">
        <ele>224.124512</ele>
        <time>2011-04-01T13:57:36Z</time>
      </trkpt>
      <trkpt lat="47.27474" lon="5.57816">
        <ele>227.489136</ele>
        <time>2011-04-01T13:57:53Z</time>
      </trkpt>
      <trkpt lat="47.27431" lon="5.57947">
        <ele>227.969727</ele>
        <time>2011-04-01T13:58:20Z</time>
      </trkpt>
      <trkpt lat="47.27371" lon="5.58113">
        <ele>227.489136</ele>
        <time>2011-04-01T13:58:49Z</time>
      </trkpt>
      <trkpt lat="47.2734" lon="5.58199">
        <ele>224.605225</ele>
        <time>2011-04-01T13:59:00Z</time>
      </trkpt>
      <trkpt lat="47.27298" lon="5.58241">
        <ele>223.163208</ele>
        <time>2011-04-01T13:59:07Z</time>
      </trkpt>
      <trkpt lat="47.27206" lon="5.58278">
        <ele>224.605225</ele>
        <time>2011-04-01T13:59:23Z</time>
      </trkpt>
      <trkpt lat="47.27146" lon="5.58316">
        <ele>227.969727</ele>
        <time>2011-04-01T13:59:37Z</time>
      </trkpt>
      <trkpt lat="47.27053" lon="5.58422">
        <ele>226.527832</ele>
        <time>2011-04-01T13:59:59Z</time>
      </trkpt>
      <trkpt lat="47.26953" lon="5.58547">
        <ele>229.411743</ele>
        <time>2011-04-01T14:00:23Z</time>
      </trkpt>
      <trkpt lat="47.26942" lon="5.58563">
        <ele>228.931152</ele>
        <time>2011-04-01T14:00:26Z</time>
      </trkpt>
      <trkpt lat="47.26929" lon="5.58579">
        <ele>229.411743</ele>
        <time>2011-04-01T14:00:30Z</time>
      </trkpt>
      <trkpt lat="47.26859" lon="5.58646">
        <ele>231.814941</ele>
        <time>2011-04-01T14:00:49Z</time>
      </trkpt>
      <trkpt lat="47.26793" lon="5.58732">
        <ele>233.737671</ele>
        <time>2011-04-01T14:01:09Z</time>
      </trkpt>
      <trkpt lat="47.26729" lon="5.5883">
        <ele>233.25708</ele>
        <time>2011-04-01T14:01:30Z</time>
      </trkpt>
      <trkpt lat="47.26678" lon="5.5892">
        <ele>232.295776</ele>
        <time>2011-04-01T14:01:46Z</time>
      </trkpt>
      <trkpt lat="47.26615" lon="5.58996">
        <ele>228.931152</ele>
        <time>2011-04-01T14:02:00Z</time>
      </trkpt>
      <trkpt lat="47.26609" lon="5.59003">
        <ele>228.931152</ele>
        <time>2011-04-01T14:02:01Z</time>
      </trkpt>
      <trkpt lat="47.26593" lon="5.59021">
        <ele>227.489136</ele>
        <time>2011-04-01T14:02:04Z</time>
      </trkpt>
      <trkpt lat="47.2656" lon="5.59063">
        <ele>225.085938</ele>
        <time>2011-04-01T14:02:10Z</time>
      </trkpt>
      <trkpt lat="47.2653" lon="5.59133">
        <ele>223.163208</ele>
        <time>2011-04-01T14:02:18Z</time>
      </trkpt>
      <trkpt lat="47.26505" lon="5.59171">
        <ele>220.759888</ele>
        <time>2011-04-01T14:02:23Z</time>
      </trkpt>
      <trkpt lat="47.26458" lon="5.59215">
        <ele>217.395386</ele>
        <time>2011-04-01T14:02:30Z</time>
      </trkpt>
      <trkpt lat="47.26411" lon="5.59256">
        <ele>214.51123</ele>
        <time>2011-04-01T14:02:37Z</time>
      </trkpt>
      <trkpt lat="47.26388" lon="5.59266">
        <ele>212.108032</ele>
        <time>2011-04-01T14:02:41Z</time>
      </trkpt>
      <trkpt lat="47.2638" lon="5.59269">
        <ele>211.146729</ele>
        <time>2011-04-01T14:02:43Z</time>
      </trkpt>
      <trkpt lat="47.26373" lon="5.59287">
        <ele>209.704834</ele>
        <time>2011-04-01T14:02:48Z</time>
      </trkpt>
      <trkpt lat="47.26371" lon="5.59346">
        <ele>209.224121</ele>
        <time>2011-04-01T14:03:04Z</time>
      </trkpt>
      <trkpt lat="47.26368" lon="5.59383">
        <ele>210.666016</ele>
        <time>2011-04-01T14:03:16Z</time>
      </trkpt>
      <trkpt lat="47.2637" lon="5.59437">
        <ele>214.03064</ele>
        <time>2011-04-01T14:03:28Z</time>
      </trkpt>
      <trkpt lat="47.26394" lon="5.59472">
        <ele>215.953247</ele>
        <time>2011-04-01T14:03:42Z</time>
      </trkpt>
      <trkpt lat="47.26422" lon="5.59513">
        <ele>217.875977</ele>
        <time>2011-04-01T14:03:57Z</time>
      </trkpt>
      <trkpt lat="47.26453" lon="5.59575">
        <ele>221.240601</ele>
        <time>2011-04-01T14:04:14Z</time>
      </trkpt>
      <trkpt lat="47.26454" lon="5.5958">
        <ele>221.240601</ele>
        <time>2011-04-01T14:04:15Z</time>
      </trkpt>
      <trkpt lat="47.2649" lon="5.59659">
        <ele>223.643799</ele>
        <time>2011-04-01T14:04:34Z</time>
      </trkpt>
      <trkpt lat="47.26541" lon="5.59793">
        <ele>224.124512</ele>
        <time>2011-04-01T14:05:03Z</time>
      </trkpt>
      <trkpt lat="47.26573" lon="5.59915">
        <ele>226.527832</ele>
        <time>2011-04-01T14:05:28Z</time>
      </trkpt>
      <trkpt lat="47.26613" lon="5.60031">
        <ele>227.489136</ele>
        <time>2011-04-01T14:05:51Z</time>
      </trkpt>
      <trkpt lat="47.26623" lon="5.60073">
        <ele>226.527832</ele>
        <time>2011-04-01T14:06:05Z</time>
      </trkpt>
      <trkpt lat="47.26622" lon="5.60087">
        <ele>227.008545</ele>
        <time>2011-04-01T14:06:43Z</time>
      </trkpt>
      <trkpt lat="47.26621" lon="5.60135">
        <ele>227.008545</ele>
        <time>2011-04-01T14:06:57Z</time>
      </trkpt>
      <trkpt lat="47.26624" lon="5.6023">
        <ele>227.489136</ele>
        <time>2011-04-01T14:07:15Z</time>
      </trkpt>
      <trkpt lat="47.26649" lon="5.60332">
        <ele>227.969727</ele>
        <time>2011-04-01T14:07:34Z</time>
      </trkpt>
      <trkpt lat="47.26669" lon="5.60447">
        <ele>228.450439</ele>
        <time>2011-04-01T14:07:54Z</time>
      </trkpt>
      <trkpt lat="47.26655" lon="5.60562">
        <ele>227.008545</ele>
        <time>2011-04-01T14:08:13Z</time>
      </trkpt>
      <trkpt lat="47.26646" lon="5.60691">
        <ele>223.643799</ele>
        <time>2011-04-01T14:08:27Z</time>
      </trkpt>
      <trkpt lat="47.26634" lon="5.60818">
        <ele>220.279175</ele>
        <time>2011-04-01T14:08:38Z</time>
      </trkpt>
      <trkpt lat="47.2663" lon="5.60859">
        <ele>218.83728</ele>
        <time>2011-04-01T14:08:41Z</time>
      </trkpt>
      <trkpt lat="47.26625" lon="5.60932">
        <ele>215.472656</ele>
        <time>2011-04-01T14:08:46Z</time>
      </trkpt>
      <trkpt lat="47.26617" lon="5.60989">
        <ele>212.108032</ele>
        <time>2011-04-01T14:08:50Z</time>
      </trkpt>
      <trkpt lat="47.26595" lon="5.61062">
        <ele>208.743408</ele>
        <time>2011-04-01T14:08:55Z</time>
      </trkpt>
      <trkpt lat="47.26582" lon="5.61102">
        <ele>207.301392</ele>
        <time>2011-04-01T14:08:58Z</time>
      </trkpt>
      <trkpt lat="47.26576" lon="5.61129">
        <ele>206.340088</ele>
        <time>2011-04-01T14:09:00Z</time>
      </trkpt>
      <trkpt lat="47.26561" lon="5.61202">
        <ele>205.378784</ele>
        <time>2011-04-01T14:09:06Z</time>
      </trkpt>
      <trkpt lat="47.26553" lon="5.61234">
        <ele>204.41748</ele>
        <time>2011-04-01T14:09:09Z</time>
      </trkpt>
      <trkpt lat="47.26518" lon="5.61343">
        <ele>203.93689</ele>
        <time>2011-04-01T14:09:21Z</time>
      </trkpt>
      <trkpt lat="47.26504" lon="5.61385">
        <ele>203.456177</ele>
        <time>2011-04-01T14:09:26Z</time>
      </trkpt>
      <trkpt lat="47.26464" lon="5.61513">
        <ele>202.494873</ele>
        <time>2011-04-01T14:09:41Z</time>
      </trkpt>
      <trkpt lat="47.2646" lon="5.6155">
        <ele>202.494873</ele>
        <time>2011-04-01T14:09:45Z</time>
      </trkpt>
      <trkpt lat="47.26444" lon="5.61678">
        <ele>203.456177</ele>
        <time>2011-04-01T14:10:00Z</time>
      </trkpt>
      <trkpt lat="47.26379" lon="5.61815">
        <ele>202.494873</ele>
        <time>2011-04-01T14:10:19Z</time>
      </trkpt>
      <trkpt lat="47.26306" lon="5.61973">
        <ele>202.014282</ele>
        <time>2011-04-01T14:10:41Z</time>
      </trkpt>
      <trkpt lat="47.26321" lon="5.62021">
        <ele>202.014282</ele>
        <time>2011-04-01T14:10:48Z</time>
      </trkpt>
      <trkpt lat="47.26327" lon="5.62025">
        <ele>202.494873</ele>
        <time>2011-04-01T14:10:49Z</time>
      </trkpt>
      <trkpt lat="47.26423" lon="5.62088">
        <ele>202.975464</ele>
        <time>2011-04-01T14:11:07Z</time>
      </trkpt>
      <trkpt lat="47.26467" lon="5.6217">
        <ele>203.93689</ele>
        <time>2011-04-01T14:11:20Z</time>
      </trkpt>
      <trkpt lat="47.26513" lon="5.62365">
        <ele>204.41748</ele>
        <time>2011-04-01T14:11:45Z</time>
      </trkpt>
      <trkpt lat="47.26585" lon="5.62581">
        <ele>204.898071</ele>
        <time>2011-04-01T14:12:13Z</time>
      </trkpt>
      <trkpt lat="47.26623" lon="5.62781">
        <ele>205.378784</ele>
        <time>2011-04-01T14:12:37Z</time>
      </trkpt>
      <trkpt lat="47.26624" lon="5.62833">
        <ele>205.378784</ele>
        <time>2011-04-01T14:12:43Z</time>
      </trkpt>
      <trkpt lat="47.26588" lon="5.62975">
        <ele>207.301392</ele>
        <time>2011-04-01T14:13:02Z</time>
      </trkpt>
      <trkpt lat="47.2657" lon="5.63027">
        <ele>206.820679</ele>
        <time>2011-04-01T14:13:14Z</time>
      </trkpt>
      <trkpt lat="47.26568" lon="5.63028">
        <ele>206.340088</ele>
        <time>2011-04-01T14:13:30Z</time>
      </trkpt>
      <trkpt lat="47.26563" lon="5.63034">
        <ele>206.820679</ele>
        <time>2011-04-01T14:14:06Z</time>
      </trkpt>
      <trkpt lat="47.26536" lon="5.63046">
        <ele>208.262817</ele>
        <time>2011-04-01T14:14:20Z</time>
      </trkpt>
      <trkpt lat="47.26458" lon="5.63077">
        <ele>208.262817</ele>
        <time>2011-04-01T14:14:35Z</time>
      </trkpt>
      <trkpt lat="47.26336" lon="5.63142">
        <ele>209.224121</ele>
        <time>2011-04-01T14:14:59Z</time>
      </trkpt>
      <trkpt lat="47.26296" lon="5.63225">
        <ele>209.224121</ele>
        <time>2011-04-01T14:15:12Z</time>
      </trkpt>
      <trkpt lat="47.26282" lon="5.63358">
        <ele>209.224121</ele>
        <time>2011-04-01T14:15:29Z</time>
      </trkpt>
      <trkpt lat="47.26271" lon="5.63509">
        <ele>208.262817</ele>
        <time>2011-04-01T14:15:48Z</time>
      </trkpt>
      <trkpt lat="47.26255" lon="5.63655">
        <ele>209.704834</ele>
        <time>2011-04-01T14:16:07Z</time>
      </trkpt>
      <trkpt lat="47.26227" lon="5.63736">
        <ele>210.666016</ele>
        <time>2011-04-01T14:16:19Z</time>
      </trkpt>
      <trkpt lat="47.26217" lon="5.63758">
        <ele>210.185425</ele>
        <time>2011-04-01T14:16:23Z</time>
      </trkpt>
      <trkpt lat="47.2614" lon="5.63865">
        <ele>209.704834</ele>
        <time>2011-04-01T14:16:43Z</time>
      </trkpt>
      <trkpt lat="47.26076" lon="5.63981">
        <ele>208.743408</ele>
        <time>2011-04-01T14:17:00Z</time>
      </trkpt>
      <trkpt lat="47.26059" lon="5.64028">
        <ele>208.262817</ele>
        <time>2011-04-01T14:17:07Z</time>
      </trkpt>
      <trkpt lat="47.26036" lon="5.64091">
        <ele>207.301392</ele>
        <time>2011-04-01T14:17:19Z</time>
      </trkpt>
      <trkpt lat="47.26043" lon="5.64084">
        <ele>206.820679</ele>
        <time>2011-04-01T14:17:25Z</time>
      </trkpt>
      <trkpt lat="47.26053" lon="5.64054">
        <ele>207.782104</ele>
        <time>2011-04-01T14:17:37Z</time>
      </trkpt>
      <trkpt lat="47.26044" lon="5.64074">
        <ele>207.301392</ele>
        <time>2011-04-01T14:17:47Z</time>
      </trkpt>
      <trkpt lat="47.26021" lon="5.64134">
        <ele>207.301392</ele>
        <time>2011-04-01T14:17:57Z</time>
      </trkpt>
      <trkpt lat="47.25949" lon="5.64308">
        <ele>207.301392</ele>
        <time>2011-04-01T14:18:17Z</time>
      </trkpt>
      <trkpt lat="47.25901" lon="5.64417">
        <ele>205.378784</ele>
        <time>2011-04-01T14:18:29Z</time>
      </trkpt>
      <trkpt lat="47.25897" lon="5.64438">
        <ele>204.898071</ele>
        <time>2011-04-01T14:18:31Z</time>
      </trkpt>
      <trkpt lat="47.25889" lon="5.64492">
        <ele>204.41748</ele>
        <time>2011-04-01T14:18:36Z</time>
      </trkpt>
      <trkpt lat="47.25862" lon="5.64619">
        <ele>205.859497</ele>
        <time>2011-04-01T14:18:51Z</time>
      </trkpt>
      <trkpt lat="47.25835" lon="5.64764">
        <ele>203.93689</ele>
        <time>2011-04-01T14:19:10Z</time>
      </trkpt>
      <trkpt lat="47.25831" lon="5.64783">
        <ele>203.93689</ele>
        <time>2011-04-01T14:19:12Z</time>
      </trkpt>
      <trkpt lat="47.25786" lon="5.64943">
        <ele>203.456177</ele>
        <time>2011-04-01T14:19:31Z</time>
      </trkpt>
      <trkpt lat="47.25774" lon="5.64982">
        <ele>203.456177</ele>
        <time>2011-04-01T14:19:36Z</time>
      </trkpt>
      <trkpt lat="47.25766" lon="5.65008">
        <ele>203.93689</ele>
        <time>2011-04-01T14:19:40Z</time>
      </trkpt>
      <trkpt lat="47.25716" lon="5.65155">
        <ele>203.456177</ele>
        <time>2011-04-01T14:20:05Z</time>
      </trkpt>
      <trkpt lat="47.2571" lon="5.65172">
        <ele>205.859497</ele>
        <time>2011-04-01T14:20:08Z</time>
      </trkpt>
      <trkpt lat="47.25646" lon="5.65339">
        <ele>208.743408</ele>
        <time>2011-04-01T14:20:35Z</time>
      </trkpt>
      <trkpt lat="47.25568" lon="5.6554">
        <ele>207.301392</ele>
        <time>2011-04-01T14:21:03Z</time>
      </trkpt>
      <trkpt lat="47.25523" lon="5.65619">
        <ele>208.262817</ele>
        <time>2011-04-01T14:21:15Z</time>
      </trkpt>
      <trkpt lat="47.2545" lon="5.65749">
        <ele>211.627441</ele>
        <time>2011-04-01T14:21:39Z</time>
      </trkpt>
      <trkpt lat="47.25432" lon="5.65781">
        <ele>213.069336</ele>
        <time>2011-04-01T14:21:46Z</time>
      </trkpt>
      <trkpt lat="47.25394" lon="5.65861">
        <ele>216.43396</ele>
        <time>2011-04-01T14:22:05Z</time>
      </trkpt>
      <trkpt lat="47.2539" lon="5.65869">
        <ele>217.395386</ele>
        <time>2011-04-01T14:22:07Z</time>
      </trkpt>
      <trkpt lat="47.25351" lon="5.6595">
        <ele>220.279175</ele>
        <time>2011-04-01T14:22:26Z</time>
      </trkpt>
      <trkpt lat="47.25311" lon="5.66052">
        <ele>220.759888</ele>
        <time>2011-04-01T14:22:47Z</time>
      </trkpt>
      <trkpt lat="47.25288" lon="5.66116">
        <ele>219.798584</ele>
        <time>2011-04-01T14:22:57Z</time>
      </trkpt>
      <trkpt lat="47.25276" lon="5.66139">
        <ele>219.317993</ele>
        <time>2011-04-01T14:23:01Z</time>
      </trkpt>
      <trkpt lat="47.25235" lon="5.66162">
        <ele>220.279175</ele>
        <time>2011-04-01T14:23:13Z</time>
      </trkpt>
      <trkpt lat="47.25188" lon="5.66173">
        <ele>223.163208</ele>
        <time>2011-04-01T14:23:25Z</time>
      </trkpt>
      <trkpt lat="47.25142" lon="5.66182">
        <ele>226.527832</ele>
        <time>2011-04-01T14:23:37Z</time>
      </trkpt>
      <trkpt lat="47.25103" lon="5.66192">
        <ele>229.892334</ele>
        <time>2011-04-01T14:23:48Z</time>
      </trkpt>
      <trkpt lat="47.25057" lon="5.66207">
        <ele>232.295776</ele>
        <time>2011-04-01T14:24:05Z</time>
      </trkpt>
      <trkpt lat="47.25021" lon="5.66225">
        <ele>233.737671</ele>
        <time>2011-04-01T14:24:20Z</time>
      </trkpt>
      <trkpt lat="47.24983" lon="5.6625">
        <ele>234.218384</ele>
        <time>2011-04-01T14:24:39Z</time>
      </trkpt>
      <trkpt lat="47.24929" lon="5.66279">
        <ele>230.85376</ele>
        <time>2011-04-01T14:24:53Z</time>
      </trkpt>
      <trkpt lat="47.24879" lon="5.66312">
        <ele>227.969727</ele>
        <time>2011-04-01T14:25:01Z</time>
      </trkpt>
      <trkpt lat="47.2479" lon="5.66362">
        <ele>225.085938</ele>
        <time>2011-04-01T14:25:12Z</time>
      </trkpt>
      <trkpt lat="47.24731" lon="5.66391">
        <ele>224.605225</ele>
        <time>2011-04-01T14:25:23Z</time>
      </trkpt>
      <trkpt lat="47.24644" lon="5.66447">
        <ele>225.566528</ele>
        <time>2011-04-01T14:25:45Z</time>
      </trkpt>
      <trkpt lat="47.24572" lon="5.66516">
        <ele>223.643799</ele>
        <time>2011-04-01T14:26:02Z</time>
      </trkpt>
      <trkpt lat="47.2445" lon="5.66615">
        <ele>220.759888</ele>
        <time>2011-04-01T14:26:24Z</time>
      </trkpt>
      <trkpt lat="47.24342" lon="5.66676">
        <ele>217.875977</ele>
        <time>2011-04-01T14:26:42Z</time>
      </trkpt>
      <trkpt lat="47.24319" lon="5.66689">
        <ele>217.395386</ele>
        <time>2011-04-01T14:26:46Z</time>
      </trkpt>
      <trkpt lat="47.2429" lon="5.66705">
        <ele>217.395386</ele>
        <time>2011-04-01T14:26:52Z</time>
      </trkpt>
      <trkpt lat="47.24272" lon="5.66703">
        <ele>217.875977</ele>
        <time>2011-04-01T14:26:56Z</time>
      </trkpt>
      <trkpt lat="47.24259" lon="5.66698">
        <ele>218.356567</ele>
        <time>2011-04-01T14:26:59Z</time>
      </trkpt>
      <trkpt lat="47.24213" lon="5.66709">
        <ele>219.317993</ele>
        <time>2011-04-01T14:27:09Z</time>
      </trkpt>
      <trkpt lat="47.24137" lon="5.66701">
        <ele>218.356567</ele>
        <time>2011-04-01T14:27:25Z</time>
      </trkpt>
      <trkpt lat="47.24108" lon="5.6669">
        <ele>217.395386</ele>
        <time>2011-04-01T14:27:36Z</time>
      </trkpt>
      <trkpt lat="47.24108" lon="5.6669">
        <ele>217.395386</ele>
        <time>2011-04-01T14:27:59Z</time>
      </trkpt>
      <trkpt lat="47.24109" lon="5.66675">
        <ele>217.875977</ele>
        <time>2011-04-01T14:28:07Z</time>
      </trkpt>
      <trkpt lat="47.24113" lon="5.66669">
        <ele>218.83728</ele>
        <time>2011-04-01T14:28:09Z</time>
      </trkpt>
      <trkpt lat="47.24149" lon="5.66561">
        <ele>221.240601</ele>
        <time>2011-04-01T14:28:31Z</time>
      </trkpt>
      <trkpt lat="47.24146" lon="5.66517">
        <ele>221.240601</ele>
        <time>2011-04-01T14:28:40Z</time>
      </trkpt>
      <trkpt lat="47.24101" lon="5.66462">
        <ele>224.605225</ele>
        <time>2011-04-01T14:28:57Z</time>
      </trkpt>
      <trkpt lat="47.24051" lon="5.66405">
        <ele>227.969727</ele>
        <time>2011-04-01T14:29:16Z</time>
      </trkpt>
      <trkpt lat="47.24008" lon="5.66351">
        <ele>231.334351</ele>
        <time>2011-04-01T14:29:33Z</time>
      </trkpt>
      <trkpt lat="47.23963" lon="5.66259">
        <ele>232.776489</ele>
        <time>2011-04-01T14:29:55Z</time>
      </trkpt>
      <trkpt lat="47.23906" lon="5.66127">
        <ele>232.776489</ele>
        <time>2011-04-01T14:30:19Z</time>
      </trkpt>
      <trkpt lat="47.23847" lon="5.65974">
        <ele>234.218384</ele>
        <time>2011-04-01T14:30:44Z</time>
      </trkpt>
      <trkpt lat="47.238" lon="5.65806">
        <ele>237.102295</ele>
        <time>2011-04-01T14:31:12Z</time>
      </trkpt>
      <trkpt lat="47.23788" lon="5.65688">
        <ele>240.467041</ele>
        <time>2011-04-01T14:31:32Z</time>
      </trkpt>
      <trkpt lat="47.23775" lon="5.65567">
        <ele>243.35083</ele>
        <time>2011-04-01T14:31:54Z</time>
      </trkpt>
      <trkpt lat="47.2376" lon="5.65484">
        <ele>244.312256</ele>
        <time>2011-04-01T14:32:10Z</time>
      </trkpt>
      <trkpt lat="47.23713" lon="5.65369">
        <ele>247.196045</ele>
        <time>2011-04-01T14:32:34Z</time>
      </trkpt>
      <trkpt lat="47.23657" lon="5.65331">
        <ele>245.75415</ele>
        <time>2011-04-01T14:32:47Z</time>
      </trkpt>
      <trkpt lat="47.23602" lon="5.65271">
        <ele>248.157593</ele>
        <time>2011-04-01T14:33:02Z</time>
      </trkpt>
      <trkpt lat="47.23566" lon="5.65216">
        <ele>251.522095</ele>
        <time>2011-04-01T14:33:17Z</time>
      </trkpt>
      <trkpt lat="47.23526" lon="5.65156">
        <ele>254.406006</ele>
        <time>2011-04-01T14:33:34Z</time>
      </trkpt>
      <trkpt lat="47.23496" lon="5.65109">
        <ele>256.328735</ele>
        <time>2011-04-01T14:33:47Z</time>
      </trkpt>
      <trkpt lat="47.2346" lon="5.65064">
        <ele>258.731934</ele>
        <time>2011-04-01T14:34:01Z</time>
      </trkpt>
      <trkpt lat="47.2342" lon="5.65003">
        <ele>262.096558</ele>
        <time>2011-04-01T14:34:18Z</time>
      </trkpt>
      <trkpt lat="47.2339" lon="5.6495">
        <ele>264.980591</ele>
        <time>2011-04-01T14:34:31Z</time>
      </trkpt>
      <trkpt lat="47.23349" lon="5.64895">
        <ele>268.345093</ele>
        <time>2011-04-01T14:34:46Z</time>
      </trkpt>
      <trkpt lat="47.23307" lon="5.64827">
        <ele>271.229126</ele>
        <time>2011-04-01T14:35:03Z</time>
      </trkpt>
      <trkpt lat="47.23275" lon="5.64782">
        <ele>274.59375</ele>
        <time>2011-04-01T14:35:15Z</time>
      </trkpt>
      <trkpt lat="47.23227" lon="5.64722">
        <ele>277.477661</ele>
        <time>2011-04-01T14:35:32Z</time>
      </trkpt>
      <trkpt lat="47.23206" lon="5.64701">
        <ele>278.919678</ele>
        <time>2011-04-01T14:35:39Z</time>
      </trkpt>
      <trkpt lat="47.23155" lon="5.64667">
        <ele>280.842407</ele>
        <time>2011-04-01T14:35:53Z</time>
      </trkpt>
      <trkpt lat="47.23102" lon="5.64625">
        <ele>279.400269</ele>
        <time>2011-04-01T14:36:12Z</time>
      </trkpt>
      <trkpt lat="47.23081" lon="5.64607">
        <ele>277.477661</ele>
        <time>2011-04-01T14:36:27Z</time>
      </trkpt>
      <trkpt lat="47.23077" lon="5.64604">
        <ele>278.438965</ele>
        <time>2011-04-01T14:39:41Z</time>
      </trkpt>
      <trkpt lat="47.23066" lon="5.64598">
        <ele>277.958252</ele>
        <time>2011-04-01T14:39:44Z</time>
      </trkpt>
      <trkpt lat="47.23014" lon="5.6456">
        <ele>276.035645</ele>
        <time>2011-04-01T14:39:54Z</time>
      </trkpt>
      <trkpt lat="47.22951" lon="5.64507">
        <ele>272.19043</ele>
        <time>2011-04-01T14:40:03Z</time>
      </trkpt>
      <trkpt lat="47.22888" lon="5.64461">
        <ele>269.306519</ele>
        <time>2011-04-01T14:40:10Z</time>
      </trkpt>
      <trkpt lat="47.2281" lon="5.64412">
        <ele>265.461304</ele>
        <time>2011-04-01T14:40:18Z</time>
      </trkpt>
      <trkpt lat="47.228" lon="5.64406">
        <ele>265.461304</ele>
        <time>2011-04-01T14:40:19Z</time>
      </trkpt>
      <trkpt lat="47.2276" lon="5.64384">
        <ele>262.096558</ele>
        <time>2011-04-01T14:40:23Z</time>
      </trkpt>
      <trkpt lat="47.2275" lon="5.64378">
        <ele>262.096558</ele>
        <time>2011-04-01T14:40:24Z</time>
      </trkpt>
      <trkpt lat="47.22701" lon="5.64349">
        <ele>258.251343</ele>
        <time>2011-04-01T14:40:29Z</time>
      </trkpt>
      <trkpt lat="47.22691" lon="5.64345">
        <ele>258.251343</ele>
        <time>2011-04-01T14:40:30Z</time>
      </trkpt>
      <trkpt lat="47.22604" lon="5.64326">
        <ele>253.925415</ele>
        <time>2011-04-01T14:40:38Z</time>
      </trkpt>
      <trkpt lat="47.2256" lon="5.6432">
        <ele>251.041382</ele>
        <time>2011-04-01T14:40:42Z</time>
      </trkpt>
      <trkpt lat="47.22527" lon="5.64315">
        <ele>249.118774</ele>
        <time>2011-04-01T14:40:45Z</time>
      </trkpt>
      <trkpt lat="47.22462" lon="5.64292">
        <ele>245.273438</ele>
        <time>2011-04-01T14:40:51Z</time>
      </trkpt>
      <trkpt lat="47.22398" lon="5.64237">
        <ele>242.389648</ele>
        <time>2011-04-01T14:40:58Z</time>
      </trkpt>
      <trkpt lat="47.22361" lon="5.64205">
        <ele>239.505493</ele>
        <time>2011-04-01T14:41:02Z</time>
      </trkpt>
      <trkpt lat="47.22317" lon="5.64166">
        <ele>236.621704</ele>
        <time>2011-04-01T14:41:07Z</time>
      </trkpt>
      <trkpt lat="47.22268" lon="5.64124">
        <ele>233.25708</ele>
        <time>2011-04-01T14:41:13Z</time>
      </trkpt>
      <trkpt lat="47.22255" lon="5.64114">
        <ele>232.295776</ele>
        <time>2011-04-01T14:41:15Z</time>
      </trkpt>
      <trkpt lat="47.22251" lon="5.6411">
        <ele>231.814941</ele>
        <time>2011-04-01T14:41:16Z</time>
      </trkpt>
      <trkpt lat="47.2224" lon="5.64094">
        <ele>230.373047</ele>
        <time>2011-04-01T14:41:19Z</time>
      </trkpt>
      <trkpt lat="47.22217" lon="5.6408">
        <ele>229.892334</ele>
        <time>2011-04-01T14:41:24Z</time>
      </trkpt>
      <trkpt lat="47.22129" lon="5.64029">
        <ele>228.931152</ele>
        <time>2011-04-01T14:41:40Z</time>
      </trkpt>
      <trkpt lat="47.2203" lon="5.64009">
        <ele>228.450439</ele>
        <time>2011-04-01T14:41:57Z</time>
      </trkpt>
      <trkpt lat="47.22026" lon="5.64007">
        <ele>228.931152</ele>
        <time>2011-04-01T14:41:58Z</time>
      </trkpt>
      <trkpt lat="47.22002" lon="5.63997">
        <ele>228.931152</ele>
        <time>2011-04-01T14:42:03Z</time>
      </trkpt>
      <trkpt lat="47.21918" lon="5.63998">
        <ele>228.450439</ele>
        <time>2011-04-01T14:42:19Z</time>
      </trkpt>
      <trkpt lat="47.21846" lon="5.64004">
        <ele>227.489136</ele>
        <time>2011-04-01T14:42:34Z</time>
      </trkpt>
      <trkpt lat="47.21795" lon="5.64025">
        <ele>226.047119</ele>
        <time>2011-04-01T14:42:44Z</time>
      </trkpt>
      <trkpt lat="47.21717" lon="5.64027">
        <ele>222.682495</ele>
        <time>2011-04-01T14:42:55Z</time>
      </trkpt>
      <trkpt lat="47.21648" lon="5.64026">
        <ele>219.317993</ele>
        <time>2011-04-01T14:43:03Z</time>
      </trkpt>
      <trkpt lat="47.21542" lon="5.64009">
        <ele>218.356567</ele>
        <time>2011-04-01T14:43:17Z</time>
      </trkpt>
      <trkpt lat="47.21461" lon="5.63973">
        <ele>220.279175</ele>
        <time>2011-04-01T14:43:32Z</time>
      </trkpt>
      <trkpt lat="47.21414" lon="5.63918">
        <ele>222.682495</ele>
        <time>2011-04-01T14:43:48Z</time>
      </trkpt>
      <trkpt lat="47.21371" lon="5.63858">
        <ele>225.566528</ele>
        <time>2011-04-01T14:44:06Z</time>
      </trkpt>
      <trkpt lat="47.21316" lon="5.63814">
        <ele>228.931152</ele>
        <time>2011-04-01T14:44:25Z</time>
      </trkpt>
      <trkpt lat="47.21268" lon="5.6375">
        <ele>232.295776</ele>
        <time>2011-04-01T14:44:44Z</time>
      </trkpt>
      <trkpt lat="47.21246" lon="5.63668">
        <ele>235.660278</ele>
        <time>2011-04-01T14:45:01Z</time>
      </trkpt>
      <trkpt lat="47.21223" lon="5.63585">
        <ele>239.024902</ele>
        <time>2011-04-01T14:45:19Z</time>
      </trkpt>
      <trkpt lat="47.21196" lon="5.63491">
        <ele>242.389648</ele>
        <time>2011-04-01T14:45:39Z</time>
      </trkpt>
      <trkpt lat="47.21161" lon="5.6336">
        <ele>245.273438</ele>
        <time>2011-04-01T14:46:05Z</time>
      </trkpt>
      <trkpt lat="47.21123" lon="5.63279">
        <ele>248.638184</ele>
        <time>2011-04-01T14:46:23Z</time>
      </trkpt>
      <trkpt lat="47.21088" lon="5.63183">
        <ele>251.041382</ele>
        <time>2011-04-01T14:46:43Z</time>
      </trkpt>
      <trkpt lat="47.21078" lon="5.63055">
        <ele>251.041382</ele>
        <time>2011-04-01T14:47:06Z</time>
      </trkpt>
      <trkpt lat="47.21076" lon="5.62973">
        <ele>252.002808</ele>
        <time>2011-04-01T14:47:19Z</time>
      </trkpt>
      <trkpt lat="47.21036" lon="5.62876">
        <ele>254.406006</ele>
        <time>2011-04-01T14:47:38Z</time>
      </trkpt>
      <trkpt lat="47.20981" lon="5.628">
        <ele>257.290039</ele>
        <time>2011-04-01T14:47:57Z</time>
      </trkpt>
      <trkpt lat="47.20926" lon="5.6273">
        <ele>259.693359</ele>
        <time>2011-04-01T14:48:14Z</time>
      </trkpt>
      <trkpt lat="47.20863" lon="5.62641">
        <ele>263.057861</ele>
        <time>2011-04-01T14:48:34Z</time>
      </trkpt>
      <trkpt lat="47.20799" lon="5.62543">
        <ele>265.941895</ele>
        <time>2011-04-01T14:48:55Z</time>
      </trkpt>
      <trkpt lat="47.20758" lon="5.6245">
        <ele>269.306519</ele>
        <time>2011-04-01T14:49:12Z</time>
      </trkpt>
      <trkpt lat="47.2072" lon="5.62357">
        <ele>271.229126</ele>
        <time>2011-04-01T14:49:28Z</time>
      </trkpt>
      <trkpt lat="47.20698" lon="5.62283">
        <ele>270.2677</ele>
        <time>2011-04-01T14:49:41Z</time>
      </trkpt>
      <trkpt lat="47.20693" lon="5.62269">
        <ele>269.306519</ele>
        <time>2011-04-01T14:49:56Z</time>
      </trkpt>
      <trkpt lat="47.20695" lon="5.62272">
        <ele>268.825806</ele>
        <time>2011-04-01T14:50:42Z</time>
      </trkpt>
      <trkpt lat="47.20695" lon="5.62272">
        <ele>269.306519</ele>
        <time>2011-04-01T14:54:29Z</time>
      </trkpt>
      <trkpt lat="47.20673" lon="5.62227">
        <ele>269.787109</ele>
        <time>2011-04-01T14:54:43Z</time>
      </trkpt>
      <trkpt lat="47.20641" lon="5.62155">
        <ele>269.306519</ele>
        <time>2011-04-01T14:54:59Z</time>
      </trkpt>
      <trkpt lat="47.20575" lon="5.62057">
        <ele>269.306519</ele>
        <time>2011-04-01T14:55:19Z</time>
      </trkpt>
      <trkpt lat="47.20463" lon="5.61904">
        <ele>270.2677</ele>
        <time>2011-04-01T14:55:48Z</time>
      </trkpt>
      <trkpt lat="47.20397" lon="5.61785">
        <ele>272.19043</ele>
        <time>2011-04-01T14:56:09Z</time>
      </trkpt>
      <trkpt lat="47.20331" lon="5.61663">
        <ele>273.151855</ele>
        <time>2011-04-01T14:56:32Z</time>
      </trkpt>
      <trkpt lat="47.20252" lon="5.61524">
        <ele>274.113037</ele>
        <time>2011-04-01T14:56:56Z</time>
      </trkpt>
      <trkpt lat="47.20159" lon="5.61389">
        <ele>275.074463</ele>
        <time>2011-04-01T14:57:21Z</time>
      </trkpt>
      <trkpt lat="47.20047" lon="5.61254">
        <ele>272.671143</ele>
        <time>2011-04-01T14:57:45Z</time>
      </trkpt>
      <trkpt lat="47.19974" lon="5.61121">
        <ele>269.306519</ele>
        <time>2011-04-01T14:58:01Z</time>
      </trkpt>
      <trkpt lat="47.19923" lon="5.61031">
        <ele>265.941895</ele>
        <time>2011-04-01T14:58:10Z</time>
      </trkpt>
      <trkpt lat="47.19855" lon="5.60905">
        <ele>262.577148</ele>
        <time>2011-04-01T14:58:22Z</time>
      </trkpt>
      <trkpt lat="47.19799" lon="5.60719">
        <ele>261.135254</ele>
        <time>2011-04-01T14:58:39Z</time>
      </trkpt>
      <trkpt lat="47.19771" lon="5.60635">
        <ele>262.096558</ele>
        <time>2011-04-01T14:58:50Z</time>
      </trkpt>
      <trkpt lat="47.19765" lon="5.60624">
        <ele>262.577148</ele>
        <time>2011-04-01T14:58:52Z</time>
      </trkpt>
      <trkpt lat="47.19715" lon="5.60585">
        <ele>265.941895</ele>
        <time>2011-04-01T14:59:06Z</time>
      </trkpt>
      <trkpt lat="47.19653" lon="5.60545">
        <ele>269.306519</ele>
        <time>2011-04-01T14:59:23Z</time>
      </trkpt>
      <trkpt lat="47.19576" lon="5.6049">
        <ele>269.787109</ele>
        <time>2011-04-01T14:59:42Z</time>
      </trkpt>
      <trkpt lat="47.19526" lon="5.60454">
        <ele>269.306519</ele>
        <time>2011-04-01T14:59:51Z</time>
      </trkpt>
      <trkpt lat="47.19477" lon="5.60417">
        <ele>269.306519</ele>
        <time>2011-04-01T15:00:01Z</time>
      </trkpt>
      <trkpt lat="47.19439" lon="5.60348">
        <ele>272.671143</ele>
        <time>2011-04-01T15:00:15Z</time>
      </trkpt>
      <trkpt lat="47.19433" lon="5.60337">
        <ele>273.151855</ele>
        <time>2011-04-01T15:00:17Z</time>
      </trkpt>
      <trkpt lat="47.19417" lon="5.60298">
        <ele>274.59375</ele>
        <time>2011-04-01T15:00:24Z</time>
      </trkpt>
      <trkpt lat="47.19386" lon="5.60248">
        <ele>277.477661</ele>
        <time>2011-04-01T15:00:35Z</time>
      </trkpt>
      <trkpt lat="47.19373" lon="5.60226">
        <ele>278.438965</ele>
        <time>2011-04-01T15:00:40Z</time>
      </trkpt>
      <trkpt lat="47.19367" lon="5.60217">
        <ele>279.400269</ele>
        <time>2011-04-01T15:00:42Z</time>
      </trkpt>
      <trkpt lat="47.19357" lon="5.60206">
        <ele>279.880859</ele>
        <time>2011-04-01T15:00:45Z</time>
      </trkpt>
      <trkpt lat="47.19344" lon="5.6019">
        <ele>280.842407</ele>
        <time>2011-04-01T15:00:49Z</time>
      </trkpt>
      <trkpt lat="47.19302" lon="5.6015">
        <ele>281.803589</ele>
        <time>2011-04-01T15:01:01Z</time>
      </trkpt>
      <trkpt lat="47.19277" lon="5.6011">
        <ele>280.361694</ele>
        <time>2011-04-01T15:01:10Z</time>
      </trkpt>
      <trkpt lat="47.1922" lon="5.60046">
        <ele>277.477661</ele>
        <time>2011-04-01T15:01:23Z</time>
      </trkpt>
      <trkpt lat="47.19158" lon="5.59972">
        <ele>274.113037</ele>
        <time>2011-04-01T15:01:34Z</time>
      </trkpt>
      <trkpt lat="47.19087" lon="5.59891">
        <ele>270.748413</ele>
        <time>2011-04-01T15:01:44Z</time>
      </trkpt>
      <trkpt lat="47.19064" lon="5.59865">
        <ele>268.825806</ele>
        <time>2011-04-01T15:01:47Z</time>
      </trkpt>
      <trkpt lat="47.18981" lon="5.59772">
        <ele>264.499878</ele>
        <time>2011-04-01T15:01:57Z</time>
      </trkpt>
      <trkpt lat="47.1893" lon="5.59717">
        <ele>261.615967</ele>
        <time>2011-04-01T15:02:03Z</time>
      </trkpt>
      <trkpt lat="47.18848" lon="5.59638">
        <ele>259.693359</ele>
        <time>2011-04-01T15:02:15Z</time>
      </trkpt>
      <trkpt lat="47.18802" lon="5.59588">
        <ele>263.057861</ele>
        <time>2011-04-01T15:02:26Z</time>
      </trkpt>
      <trkpt lat="47.18756" lon="5.5953">
        <ele>265.941895</ele>
        <time>2011-04-01T15:02:40Z</time>
      </trkpt>
      <trkpt lat="47.18714" lon="5.59474">
        <ele>269.306519</ele>
        <time>2011-04-01T15:02:53Z</time>
      </trkpt>
      <trkpt lat="47.18676" lon="5.59423">
        <ele>272.19043</ele>
        <time>2011-04-01T15:03:05Z</time>
      </trkpt>
      <trkpt lat="47.18607" lon="5.59355">
        <ele>273.632446</ele>
        <time>2011-04-01T15:03:23Z</time>
      </trkpt>
      <trkpt lat="47.1855" lon="5.59304">
        <ele>272.19043</ele>
        <time>2011-04-01T15:03:41Z</time>
      </trkpt>
      <trkpt lat="47.18545" lon="5.59302">
        <ele>271.709717</ele>
        <time>2011-04-01T15:04:00Z</time>
      </trkpt>
      <trkpt lat="47.18524" lon="5.59284">
        <ele>270.748413</ele>
        <time>2011-04-01T15:05:34Z</time>
      </trkpt>
      <trkpt lat="47.18462" lon="5.59215">
        <ele>268.825806</ele>
        <time>2011-04-01T15:05:48Z</time>
      </trkpt>
      <trkpt lat="47.18415" lon="5.59116">
        <ele>265.461304</ele>
        <time>2011-04-01T15:05:59Z</time>
      </trkpt>
      <trkpt lat="47.18371" lon="5.58989">
        <ele>262.096558</ele>
        <time>2011-04-01T15:06:10Z</time>
      </trkpt>
      <trkpt lat="47.18351" lon="5.58869">
        <ele>258.731934</ele>
        <time>2011-04-01T15:06:18Z</time>
      </trkpt>
      <trkpt lat="47.18347" lon="5.58837">
        <ele>257.770752</ele>
        <time>2011-04-01T15:06:20Z</time>
      </trkpt>
      <trkpt lat="47.18333" lon="5.58758">
        <ele>254.406006</ele>
        <time>2011-04-01T15:06:25Z</time>
      </trkpt>
      <trkpt lat="47.18312" lon="5.58678">
        <ele>251.522095</ele>
        <time>2011-04-01T15:06:30Z</time>
      </trkpt>
      <trkpt lat="47.18275" lon="5.58588">
        <ele>247.676758</ele>
        <time>2011-04-01T15:06:36Z</time>
      </trkpt>
      <trkpt lat="47.18232" lon="5.58526">
        <ele>244.792847</ele>
        <time>2011-04-01T15:06:41Z</time>
      </trkpt>
      <trkpt lat="47.18224" lon="5.58514">
        <ele>244.312256</ele>
        <time>2011-04-01T15:06:42Z</time>
      </trkpt>
      <trkpt lat="47.18116" lon="5.58367">
        <ele>242.389648</ele>
        <time>2011-04-01T15:06:57Z</time>
      </trkpt>
      <trkpt lat="47.1811" lon="5.58358">
        <ele>242.389648</ele>
        <time>2011-04-01T15:06:58Z</time>
      </trkpt>
      <trkpt lat="47.18065" lon="5.58254">
        <ele>241.908936</ele>
        <time>2011-04-01T15:07:10Z</time>
      </trkpt>
      <trkpt lat="47.18019" lon="5.58206">
        <ele>241.908936</ele>
        <time>2011-04-01T15:07:19Z</time>
      </trkpt>
      <trkpt lat="47.17996" lon="5.58165">
        <ele>240.467041</ele>
        <time>2011-04-01T15:07:24Z</time>
      </trkpt>
      <trkpt lat="47.17981" lon="5.58123">
        <ele>239.024902</ele>
        <time>2011-04-01T15:07:28Z</time>
      </trkpt>
      <trkpt lat="47.17921" lon="5.58047">
        <ele>235.660278</ele>
        <time>2011-04-01T15:07:37Z</time>
      </trkpt>
      <trkpt lat="47.17907" lon="5.58034">
        <ele>235.660278</ele>
        <time>2011-04-01T15:07:39Z</time>
      </trkpt>
      <trkpt lat="47.17867" lon="5.58039">
        <ele>235.660278</ele>
        <time>2011-04-01T15:07:45Z</time>
      </trkpt>
      <trkpt lat="47.17862" lon="5.58045">
        <ele>236.140991</ele>
        <time>2011-04-01T15:07:46Z</time>
      </trkpt>
      <trkpt lat="47.17809" lon="5.58068">
        <ele>239.505493</ele>
        <time>2011-04-01T15:07:58Z</time>
      </trkpt>
      <trkpt lat="47.17792" lon="5.58066">
        <ele>239.986206</ele>
        <time>2011-04-01T15:08:02Z</time>
      </trkpt>
      <trkpt lat="47.17743" lon="5.58045">
        <ele>242.870239</ele>
        <time>2011-04-01T15:08:15Z</time>
      </trkpt>
      <trkpt lat="47.17735" lon="5.58041">
        <ele>243.35083</ele>
        <time>2011-04-01T15:08:17Z</time>
      </trkpt>
      <trkpt lat="47.17707" lon="5.58024">
        <ele>245.273438</ele>
        <time>2011-04-01T15:08:25Z</time>
      </trkpt>
      <trkpt lat="47.17662" lon="5.57956">
        <ele>248.157593</ele>
        <time>2011-04-01T15:08:40Z</time>
      </trkpt>
      <trkpt lat="47.17611" lon="5.57824">
        <ele>248.157593</ele>
        <time>2011-04-01T15:09:00Z</time>
      </trkpt>
      <trkpt lat="47.17563" lon="5.57688">
        <ele>251.522095</ele>
        <time>2011-04-01T15:09:21Z</time>
      </trkpt>
      <trkpt lat="47.17556" lon="5.5767">
        <ele>252.483398</ele>
        <time>2011-04-01T15:09:24Z</time>
      </trkpt>
      <trkpt lat="47.17524" lon="5.57582">
        <ele>255.848022</ele>
        <time>2011-04-01T15:09:39Z</time>
      </trkpt>
      <trkpt lat="47.17494" lon="5.57502">
        <ele>258.731934</ele>
        <time>2011-04-01T15:09:54Z</time>
      </trkpt>
      <trkpt lat="47.1745" lon="5.57408">
        <ele>257.290039</ele>
        <time>2011-04-01T15:10:16Z</time>
      </trkpt>
      <trkpt lat="47.17404" lon="5.57316">
        <ele>254.406006</ele>
        <time>2011-04-01T15:10:33Z</time>
      </trkpt>
      <trkpt lat="47.17323" lon="5.57238">
        <ele>252.002808</ele>
        <time>2011-04-01T15:10:49Z</time>
      </trkpt>
      <trkpt lat="47.17254" lon="5.57193">
        <ele>250.560791</ele>
        <time>2011-04-01T15:11:00Z</time>
      </trkpt>
      <trkpt lat="47.17227" lon="5.57157">
        <ele>249.118774</ele>
        <time>2011-04-01T15:11:05Z</time>
      </trkpt>
      <trkpt lat="47.17193" lon="5.57029">
        <ele>245.75415</ele>
        <time>2011-04-01T15:11:16Z</time>
      </trkpt>
      <trkpt lat="47.17134" lon="5.56913">
        <ele>243.35083</ele>
        <time>2011-04-01T15:11:27Z</time>
      </trkpt>
      <trkpt lat="47.17049" lon="5.56826">
        <ele>239.505493</ele>
        <time>2011-04-01T15:11:38Z</time>
      </trkpt>
      <trkpt lat="47.17032" lon="5.56813">
        <ele>238.063599</ele>
        <time>2011-04-01T15:11:40Z</time>
      </trkpt>
      <trkpt lat="47.16945" lon="5.5676">
        <ele>234.699097</ele>
        <time>2011-04-01T15:11:50Z</time>
      </trkpt>
      <trkpt lat="47.16867" lon="5.56684">
        <ele>235.660278</ele>
        <time>2011-04-01T15:12:03Z</time>
      </trkpt>
      <trkpt lat="47.16788" lon="5.5661">
        <ele>233.737671</ele>
        <time>2011-04-01T15:12:18Z</time>
      </trkpt>
      <trkpt lat="47.16744" lon="5.56576">
        <ele>232.776489</ele>
        <time>2011-04-01T15:12:25Z</time>
      </trkpt>
      <trkpt lat="47.16676" lon="5.56531">
        <ele>228.931152</ele>
        <time>2011-04-01T15:12:35Z</time>
      </trkpt>
      <trkpt lat="47.16665" lon="5.56525">
        <ele>228.450439</ele>
        <time>2011-04-01T15:12:37Z</time>
      </trkpt>
      <trkpt lat="47.16653" lon="5.56514">
        <ele>227.008545</ele>
        <time>2011-04-01T15:12:45Z</time>
      </trkpt>
      <trkpt lat="47.16636" lon="5.56514">
        <ele>227.489136</ele>
        <time>2011-04-01T15:14:37Z</time>
      </trkpt>
      <trkpt lat="47.16604" lon="5.56521">
        <ele>227.008545</ele>
        <time>2011-04-01T15:14:46Z</time>
      </trkpt>
      <trkpt lat="47.16538" lon="5.56498">
        <ele>225.085938</ele>
        <time>2011-04-01T15:15:00Z</time>
      </trkpt>
      <trkpt lat="47.16494" lon="5.56477">
        <ele>223.643799</ele>
        <time>2011-04-01T15:15:08Z</time>
      </trkpt>
      <trkpt lat="47.1645" lon="5.56481">
        <ele>223.163208</ele>
        <time>2011-04-01T15:15:15Z</time>
      </trkpt>
      <trkpt lat="47.16419" lon="5.56485">
        <ele>222.201782</ele>
        <time>2011-04-01T15:15:20Z</time>
      </trkpt>
      <trkpt lat="47.16374" lon="5.56466">
        <ele>219.798584</ele>
        <time>2011-04-01T15:15:26Z</time>
      </trkpt>
      <trkpt lat="47.16292" lon="5.56456">
        <ele>218.83728</ele>
        <time>2011-04-01T15:15:37Z</time>
      </trkpt>
      <trkpt lat="47.162" lon="5.56479">
        <ele>219.798584</ele>
        <time>2011-04-01T15:15:53Z</time>
      </trkpt>
      <trkpt lat="47.16129" lon="5.56517">
        <ele>223.163208</ele>
        <time>2011-04-01T15:16:12Z</time>
      </trkpt>
      <trkpt lat="47.16085" lon="5.56567">
        <ele>226.047119</ele>
        <time>2011-04-01T15:16:29Z</time>
      </trkpt>
      <trkpt lat="47.1602" lon="5.56641">
        <ele>227.489136</ele>
        <time>2011-04-01T15:16:49Z</time>
      </trkpt>
      <trkpt lat="47.15928" lon="5.56665">
        <ele>228.931152</ele>
        <time>2011-04-01T15:17:09Z</time>
      </trkpt>
      <trkpt lat="47.15817" lon="5.56645">
        <ele>227.489136</ele>
        <time>2011-04-01T15:17:29Z</time>
      </trkpt>
      <trkpt lat="47.15702" lon="5.56631">
        <ele>224.124512</ele>
        <time>2011-04-01T15:17:45Z</time>
      </trkpt>
      <trkpt lat="47.15566" lon="5.56647">
        <ele>222.201782</ele>
        <time>2011-04-01T15:18:03Z</time>
      </trkpt>
      <trkpt lat="47.15424" lon="5.5663">
        <ele>222.682495</ele>
        <time>2011-04-01T15:18:25Z</time>
      </trkpt>
      <trkpt lat="47.15262" lon="5.5661">
        <ele>224.605225</ele>
        <time>2011-04-01T15:18:51Z</time>
      </trkpt>
      <trkpt lat="47.15106" lon="5.5657">
        <ele>225.085938</ele>
        <time>2011-04-01T15:19:15Z</time>
      </trkpt>
      <trkpt lat="47.14978" lon="5.56566">
        <ele>226.047119</ele>
        <time>2011-04-01T15:19:35Z</time>
      </trkpt>
      <trkpt lat="47.14841" lon="5.56551">
        <ele>224.605225</ele>
        <time>2011-04-01T15:19:54Z</time>
      </trkpt>
      <trkpt lat="47.14687" lon="5.56508">
        <ele>226.047119</ele>
        <time>2011-04-01T15:20:15Z</time>
      </trkpt>
      <trkpt lat="47.14511" lon="5.56496">
        <ele>228.450439</ele>
        <time>2011-04-01T15:20:41Z</time>
      </trkpt>
      <trkpt lat="47.14358" lon="5.565">
        <ele>226.047119</ele>
        <time>2011-04-01T15:21:03Z</time>
      </trkpt>
      <trkpt lat="47.14289" lon="5.56489">
        <ele>223.163208</ele>
        <time>2011-04-01T15:21:12Z</time>
      </trkpt>
      <trkpt lat="47.14209" lon="5.56471">
        <ele>219.798584</ele>
        <time>2011-04-01T15:21:21Z</time>
      </trkpt>
      <trkpt lat="47.14052" lon="5.56425">
        <ele>217.395386</ele>
        <time>2011-04-01T15:21:40Z</time>
      </trkpt>
      <trkpt lat="47.13952" lon="5.56375">
        <ele>214.51123</ele>
        <time>2011-04-01T15:21:54Z</time>
      </trkpt>
      <trkpt lat="47.13841" lon="5.56353">
        <ele>214.03064</ele>
        <time>2011-04-01T15:22:09Z</time>
      </trkpt>
      <trkpt lat="47.13775" lon="5.56344">
        <ele>214.03064</ele>
        <time>2011-04-01T15:22:17Z</time>
      </trkpt>
      <trkpt lat="47.13592" lon="5.5631">
        <ele>213.550049</ele>
        <time>2011-04-01T15:22:42Z</time>
      </trkpt>
      <trkpt lat="47.13384" lon="5.56291">
        <ele>214.991943</ele>
        <time>2011-04-01T15:23:09Z</time>
      </trkpt>
      <trkpt lat="47.13235" lon="5.56271">
        <ele>214.51123</ele>
        <time>2011-04-01T15:23:31Z</time>
      </trkpt>
      <trkpt lat="47.13099" lon="5.56224">
        <ele>211.627441</ele>
        <time>2011-04-01T15:23:52Z</time>
      </trkpt>
      <trkpt lat="47.12948" lon="5.56162">
        <ele>209.224121</ele>
        <time>2011-04-01T15:24:13Z</time>
      </trkpt>
      <trkpt lat="47.12925" lon="5.5615">
        <ele>208.262817</ele>
        <time>2011-04-01T15:24:16Z</time>
      </trkpt>
      <trkpt lat="47.129" lon="5.56122">
        <ele>208.743408</ele>
        <time>2011-04-01T15:24:20Z</time>
      </trkpt>
      <trkpt lat="47.12866" lon="5.56104">
        <ele>210.185425</ele>
        <time>2011-04-01T15:24:25Z</time>
      </trkpt>
      <trkpt lat="47.12844" lon="5.56103">
        <ele>210.185425</ele>
        <time>2011-04-01T15:24:28Z</time>
      </trkpt>
      <trkpt lat="47.12816" lon="5.56147">
        <ele>209.704834</ele>
        <time>2011-04-01T15:24:34Z</time>
      </trkpt>
      <trkpt lat="47.1279" lon="5.5616">
        <ele>208.262817</ele>
        <time>2011-04-01T15:24:38Z</time>
      </trkpt>
      <trkpt lat="47.12658" lon="5.56174">
        <ele>205.859497</ele>
        <time>2011-04-01T15:24:56Z</time>
      </trkpt>
      <trkpt lat="47.12556" lon="5.56173">
        <ele>206.820679</ele>
        <time>2011-04-01T15:25:12Z</time>
      </trkpt>
      <trkpt lat="47.12495" lon="5.56154">
        <ele>205.859497</ele>
        <time>2011-04-01T15:25:24Z</time>
      </trkpt>
      <trkpt lat="47.12457" lon="5.56144">
        <ele>205.859497</ele>
        <time>2011-04-01T15:25:36Z</time>
      </trkpt>
      <trkpt lat="47.12448" lon="5.56142">
        <ele>205.859497</ele>
        <time>2011-04-01T15:25:38Z</time>
      </trkpt>
      <trkpt lat="47.12434" lon="5.56151">
        <ele>205.378784</ele>
        <time>2011-04-01T15:25:42Z</time>
      </trkpt>
      <trkpt lat="47.12413" lon="5.56204">
        <ele>204.898071</ele>
        <time>2011-04-01T15:25:50Z</time>
      </trkpt>
      <trkpt lat="47.12389" lon="5.56246">
        <ele>204.41748</ele>
        <time>2011-04-01T15:25:59Z</time>
      </trkpt>
      <trkpt lat="47.1238" lon="5.56252">
        <ele>204.41748</ele>
        <time>2011-04-01T15:26:03Z</time>
      </trkpt>
      <trkpt lat="47.12357" lon="5.56234">
        <ele>204.41748</ele>
        <time>2011-04-01T15:26:14Z</time>
      </trkpt>
      <trkpt lat="47.12333" lon="5.562">
        <ele>203.93689</ele>
        <time>2011-04-01T15:26:30Z</time>
      </trkpt>
      <trkpt lat="47.12309" lon="5.56166">
        <ele>203.93689</ele>
        <time>2011-04-01T15:26:48Z</time>
      </trkpt>
      <trkpt lat="47.1231" lon="5.56165">
        <ele>202.975464</ele>
        <time>2011-04-01T15:26:52Z</time>
      </trkpt>
      <trkpt lat="47.12309" lon="5.56164">
        <ele>203.93689</ele>
        <time>2011-04-01T15:26:54Z</time>
      </trkpt>
      <trkpt lat="47.12308" lon="5.56163">
        <ele>203.93689</ele>
        <time>2011-04-01T15:27:46Z</time>
      </trkpt>
      <trkpt lat="47.12306" lon="5.56161">
        <ele>204.41748</ele>
        <time>2011-04-01T15:28:53Z</time>
      </trkpt>
      <trkpt lat="47.12276" lon="5.56116">
        <ele>204.898071</ele>
        <time>2011-04-01T15:29:08Z</time>
      </trkpt>
      <trkpt lat="47.12222" lon="5.56041">
        <ele>204.898071</ele>
        <time>2011-04-01T15:29:26Z</time>
      </trkpt>
      <trkpt lat="47.12142" lon="5.55926">
        <ele>204.41748</ele>
        <time>2011-04-01T15:29:48Z</time>
      </trkpt>
      <trkpt lat="47.12037" lon="5.55778">
        <ele>204.898071</ele>
        <time>2011-04-01T15:30:11Z</time>
      </trkpt>
      <trkpt lat="47.11941" lon="5.55645">
        <ele>204.898071</ele>
        <time>2011-04-01T15:30:30Z</time>
      </trkpt>
      <trkpt lat="47.11848" lon="5.55517">
        <ele>205.378784</ele>
        <time>2011-04-01T15:30:49Z</time>
      </trkpt>
      <trkpt lat="47.11761" lon="5.55394">
        <ele>205.378784</ele>
        <time>2011-04-01T15:31:08Z</time>
      </trkpt>
      <trkpt lat="47.11641" lon="5.55226">
        <ele>204.898071</ele>
        <time>2011-04-01T15:31:33Z</time>
      </trkpt>
      <trkpt lat="47.11535" lon="5.55078">
        <ele>204.898071</ele>
        <time>2011-04-01T15:31:56Z</time>
      </trkpt>
      <trkpt lat="47.11424" lon="5.54921">
        <ele>204.41748</ele>
        <time>2011-04-01T15:32:22Z</time>
      </trkpt>
      <trkpt lat="47.11327" lon="5.54808">
        <ele>204.41748</ele>
        <time>2011-04-01T15:32:43Z</time>
      </trkpt>
      <trkpt lat="47.1123" lon="5.5477">
        <ele>203.93689</ele>
        <time>2011-04-01T15:33:00Z</time>
      </trkpt>
      <trkpt lat="47.11102" lon="5.54719">
        <ele>203.93689</ele>
        <time>2011-04-01T15:33:22Z</time>
      </trkpt>
      <trkpt lat="47.10938" lon="5.54656">
        <ele>204.41748</ele>
        <time>2011-04-01T15:33:50Z</time>
      </trkpt>
      <trkpt lat="47.10814" lon="5.54607">
        <ele>203.93689</ele>
        <time>2011-04-01T15:34:13Z</time>
      </trkpt>
      <trkpt lat="47.10666" lon="5.54546">
        <ele>203.93689</ele>
        <time>2011-04-01T15:34:39Z</time>
      </trkpt>
      <trkpt lat="47.10578" lon="5.54513">
        <ele>203.93689</ele>
        <time>2011-04-01T15:34:56Z</time>
      </trkpt>
      <trkpt lat="47.10446" lon="5.54459">
        <ele>203.93689</ele>
        <time>2011-04-01T15:35:20Z</time>
      </trkpt>
      <trkpt lat="47.10293" lon="5.54396">
        <ele>203.93689</ele>
        <time>2011-04-01T15:35:48Z</time>
      </trkpt>
      <trkpt lat="47.1019" lon="5.54355">
        <ele>203.93689</ele>
        <time>2011-04-01T15:36:07Z</time>
      </trkpt>
      <trkpt lat="47.10057" lon="5.54296">
        <ele>203.93689</ele>
        <time>2011-04-01T15:36:31Z</time>
      </trkpt>
      <trkpt lat="47.09958" lon="5.54214">
        <ele>203.456177</ele>
        <time>2011-04-01T15:36:51Z</time>
      </trkpt>
      <trkpt lat="47.09887" lon="5.54118">
        <ele>202.975464</ele>
        <time>2011-04-01T15:37:08Z</time>
      </trkpt>
      <trkpt lat="47.09823" lon="5.53977">
        <ele>202.975464</ele>
        <time>2011-04-01T15:37:27Z</time>
      </trkpt>
      <trkpt lat="47.09784" lon="5.53849">
        <ele>203.456177</ele>
        <time>2011-04-01T15:37:45Z</time>
      </trkpt>
      <trkpt lat="47.09768" lon="5.53804">
        <ele>203.93689</ele>
        <time>2011-04-01T15:37:52Z</time>
      </trkpt>
      <trkpt lat="47.09764" lon="5.53784">
        <ele>203.93689</ele>
        <time>2011-04-01T15:37:55Z</time>
      </trkpt>
      <trkpt lat="47.09765" lon="5.53757">
        <ele>204.41748</ele>
        <time>2011-04-01T15:38:00Z</time>
      </trkpt>
      <trkpt lat="47.09755" lon="5.53699">
        <ele>202.975464</ele>
        <time>2011-04-01T15:38:12Z</time>
      </trkpt>
      <trkpt lat="47.09725" lon="5.53559">
        <ele>202.975464</ele>
        <time>2011-04-01T15:38:31Z</time>
      </trkpt>
      <trkpt lat="47.09689" lon="5.53386">
        <ele>202.975464</ele>
        <time>2011-04-01T15:38:53Z</time>
      </trkpt>
      <trkpt lat="47.09649" lon="5.53203">
        <ele>202.975464</ele>
        <time>2011-04-01T15:39:15Z</time>
      </trkpt>
      <trkpt lat="47.09639" lon="5.53181">
        <ele>202.494873</ele>
        <time>2011-04-01T15:39:19Z</time>
      </trkpt>
      <trkpt lat="47.09632" lon="5.53157">
        <ele>203.456177</ele>
        <time>2011-04-01T15:39:23Z</time>
      </trkpt>
      <trkpt lat="47.09633" lon="5.53133">
        <ele>202.975464</ele>
        <time>2011-04-01T15:39:26Z</time>
      </trkpt>
      <trkpt lat="47.09591" lon="5.52916">
        <ele>202.975464</ele>
        <time>2011-04-01T15:39:51Z</time>
      </trkpt>
      <trkpt lat="47.0955" lon="5.52699">
        <ele>203.93689</ele>
        <time>2011-04-01T15:40:17Z</time>
      </trkpt>
      <trkpt lat="47.09549" lon="5.52684">
        <ele>204.41748</ele>
        <time>2011-04-01T15:40:26Z</time>
      </trkpt>
      <trkpt lat="47.09548" lon="5.52678">
        <ele>205.378784</ele>
        <time>2011-04-01T15:40:35Z</time>
      </trkpt>
      <trkpt lat="47.09547" lon="5.52678">
        <ele>205.378784</ele>
        <time>2011-04-01T15:40:38Z</time>
      </trkpt>
      <trkpt lat="47.09532" lon="5.52684">
        <ele>205.378784</ele>
        <time>2011-04-01T15:40:47Z</time>
      </trkpt>
      <trkpt lat="47.09514" lon="5.52634">
        <ele>203.456177</ele>
        <time>2011-04-01T15:40:55Z</time>
      </trkpt>
      <trkpt lat="47.09478" lon="5.52447">
        <ele>202.494873</ele>
        <time>2011-04-01T15:41:17Z</time>
      </trkpt>
      <trkpt lat="47.09442" lon="5.52272">
        <ele>202.494873</ele>
        <time>2011-04-01T15:41:38Z</time>
      </trkpt>
      <trkpt lat="47.09393" lon="5.52022">
        <ele>202.014282</ele>
        <time>2011-04-01T15:42:07Z</time>
      </trkpt>
      <trkpt lat="47.0935" lon="5.51811">
        <ele>202.014282</ele>
        <time>2011-04-01T15:42:32Z</time>
      </trkpt>
      <trkpt lat="47.09322" lon="5.51663">
        <ele>201.533569</ele>
        <time>2011-04-01T15:42:50Z</time>
      </trkpt>
      <trkpt lat="47.09318" lon="5.51637">
        <ele>202.014282</ele>
        <time>2011-04-01T15:42:53Z</time>
      </trkpt>
      <trkpt lat="47.09289" lon="5.51478">
        <ele>201.533569</ele>
        <time>2011-04-01T15:43:12Z</time>
      </trkpt>
      <trkpt lat="47.09282" lon="5.51322">
        <ele>202.494873</ele>
        <time>2011-04-01T15:43:30Z</time>
      </trkpt>
      <trkpt lat="47.09284" lon="5.51292">
        <ele>202.014282</ele>
        <time>2011-04-01T15:43:34Z</time>
      </trkpt>
      <trkpt lat="47.09285" lon="5.51246">
        <ele>201.533569</ele>
        <time>2011-04-01T15:43:40Z</time>
      </trkpt>
      <trkpt lat="47.09297" lon="5.51043">
        <ele>201.052856</ele>
        <time>2011-04-01T15:44:04Z</time>
      </trkpt>
      <trkpt lat="47.093" lon="5.50975">
        <ele>201.052856</ele>
        <time>2011-04-01T15:44:13Z</time>
      </trkpt>
      <trkpt lat="47.09303" lon="5.50901">
        <ele>201.052856</ele>
        <time>2011-04-01T15:44:23Z</time>
      </trkpt>
      <trkpt lat="47.09309" lon="5.50877">
        <ele>201.052856</ele>
        <time>2011-04-01T15:44:27Z</time>
      </trkpt>
      <trkpt lat="47.09314" lon="5.50865">
        <ele>200.572266</ele>
        <time>2011-04-01T15:44:29Z</time>
      </trkpt>
      <trkpt lat="47.09318" lon="5.50842">
        <ele>200.572266</ele>
        <time>2011-04-01T15:44:33Z</time>
      </trkpt>
      <trkpt lat="47.09312" lon="5.50825">
        <ele>200.572266</ele>
        <time>2011-04-01T15:44:37Z</time>
      </trkpt>
      <trkpt lat="47.0931" lon="5.50809">
        <ele>201.052856</ele>
        <time>2011-04-01T15:44:40Z</time>
      </trkpt>
      <trkpt lat="47.09309" lon="5.5077">
        <ele>201.533569</ele>
        <time>2011-04-01T15:44:46Z</time>
      </trkpt>
      <trkpt lat="47.09318" lon="5.50607">
        <ele>201.052856</ele>
        <time>2011-04-01T15:45:06Z</time>
      </trkpt>
      <trkpt lat="47.09325" lon="5.50508">
        <ele>201.052856</ele>
        <time>2011-04-01T15:45:20Z</time>
      </trkpt>
      <trkpt lat="47.09324" lon="5.50481">
        <ele>200.572266</ele>
        <time>2011-04-01T15:45:24Z</time>
      </trkpt>
      <trkpt lat="47.09309" lon="5.50443">
        <ele>199.130127</ele>
        <time>2011-04-01T15:45:30Z</time>
      </trkpt>
      <trkpt lat="47.093" lon="5.50439">
        <ele>199.130127</ele>
        <time>2011-04-01T15:45:32Z</time>
      </trkpt>
      <trkpt lat="47.09299" lon="5.50417">
        <ele>199.130127</ele>
        <time>2011-04-01T15:45:36Z</time>
      </trkpt>
      <trkpt lat="47.09318" lon="5.5032">
        <ele>200.091675</ele>
        <time>2011-04-01T15:45:51Z</time>
      </trkpt>
      <trkpt lat="47.0934" lon="5.50298">
        <ele>202.014282</ele>
        <time>2011-04-01T15:46:00Z</time>
      </trkpt>
      <trkpt lat="47.09354" lon="5.503">
        <ele>202.014282</ele>
        <time>2011-04-01T15:46:07Z</time>
      </trkpt>
      <trkpt lat="47.0936" lon="5.50283">
        <ele>201.533569</ele>
        <time>2011-04-01T15:46:11Z</time>
      </trkpt>
      <trkpt lat="47.09363" lon="5.50238">
        <ele>200.572266</ele>
        <time>2011-04-01T15:46:17Z</time>
      </trkpt>
      <trkpt lat="47.09368" lon="5.50175">
        <ele>200.091675</ele>
        <time>2011-04-01T15:46:26Z</time>
      </trkpt>
      <trkpt lat="47.0937" lon="5.50116">
        <ele>200.091675</ele>
        <time>2011-04-01T15:46:36Z</time>
      </trkpt>
      <trkpt lat="47.09372" lon="5.50089">
        <ele>200.091675</ele>
        <time>2011-04-01T15:46:41Z</time>
      </trkpt>
      <trkpt lat="47.0937" lon="5.5008">
        <ele>200.091675</ele>
        <time>2011-04-01T15:46:43Z</time>
      </trkpt>
      <trkpt lat="47.09375" lon="5.50029">
        <ele>200.091675</ele>
        <time>2011-04-01T15:46:56Z</time>
      </trkpt>
      <trkpt lat="47.09378" lon="5.50023">
        <ele>199.61084</ele>
        <time>2011-04-01T15:46:58Z</time>
      </trkpt>
      <trkpt lat="47.0938" lon="5.49953">
        <ele>201.052856</ele>
        <time>2011-04-01T15:47:11Z</time>
      </trkpt>
      <trkpt lat="47.09379" lon="5.49942">
        <ele>201.052856</ele>
        <time>2011-04-01T15:47:13Z</time>
      </trkpt>
      <trkpt lat="47.09366" lon="5.49901">
        <ele>202.975464</ele>
        <time>2011-04-01T15:47:26Z</time>
      </trkpt>
      <trkpt lat="47.09367" lon="5.49901">
        <ele>203.456177</ele>
        <time>2011-04-01T15:47:30Z</time>
      </trkpt>
      <trkpt lat="47.09355" lon="5.49908">
        <ele>203.456177</ele>
        <time>2011-04-01T15:47:37Z</time>
      </trkpt>
      <trkpt lat="47.09329" lon="5.49933">
        <ele>202.975464</ele>
        <time>2011-04-01T15:47:48Z</time>
      </trkpt>
      <trkpt lat="47.09302" lon="5.49881">
        <ele>200.091675</ele>
        <time>2011-04-01T15:47:57Z</time>
      </trkpt>
      <trkpt lat="47.09268" lon="5.49833">
        <ele>199.61084</ele>
        <time>2011-04-01T15:48:05Z</time>
      </trkpt>
      <trkpt lat="47.09247" lon="5.49814">
        <ele>200.091675</ele>
        <time>2011-04-01T15:48:10Z</time>
      </trkpt>
      <trkpt lat="47.09134" lon="5.49716">
        <ele>199.61084</ele>
        <time>2011-04-01T15:48:34Z</time>
      </trkpt>
      <trkpt lat="47.09081" lon="5.49669">
        <ele>199.61084</ele>
        <time>2011-04-01T15:48:47Z</time>
      </trkpt>
      <trkpt lat="47.09057" lon="5.4965">
        <ele>199.61084</ele>
        <time>2011-04-01T15:48:55Z</time>
      </trkpt>
      <trkpt lat="47.0905" lon="5.49651">
        <ele>199.61084</ele>
        <time>2011-04-01T15:48:58Z</time>
      </trkpt>
      <trkpt lat="47.08995" lon="5.49613">
        <ele>199.61084</ele>
        <time>2011-04-01T15:49:16Z</time>
      </trkpt>
      <trkpt lat="47.08956" lon="5.49587">
        <ele>200.091675</ele>
        <time>2011-04-01T15:49:32Z</time>
      </trkpt>
      <trkpt lat="47.08923" lon="5.49531">
        <ele>200.091675</ele>
        <time>2011-04-01T15:49:44Z</time>
      </trkpt>
      <trkpt lat="47.08917" lon="5.49518">
        <ele>200.091675</ele>
        <time>2011-04-01T15:49:46Z</time>
      </trkpt>
      <trkpt lat="47.089" lon="5.49446">
        <ele>202.014282</ele>
        <time>2011-04-01T15:49:59Z</time>
      </trkpt>
      <trkpt lat="47.08893" lon="5.49432">
        <ele>202.975464</ele>
        <time>2011-04-01T15:50:10Z</time>
      </trkpt>
      <trkpt lat="47.08889" lon="5.49428">
        <ele>202.975464</ele>
        <time>2011-04-01T15:50:12Z</time>
      </trkpt>
      <trkpt lat="47.08875" lon="5.49436">
        <ele>202.975464</ele>
        <time>2011-04-01T15:50:16Z</time>
      </trkpt>
      <trkpt lat="47.08777" lon="5.49505">
        <ele>203.93689</ele>
        <time>2011-04-01T15:50:38Z</time>
      </trkpt>
      <trkpt lat="47.08753" lon="5.4952">
        <ele>203.456177</ele>
        <time>2011-04-01T15:50:43Z</time>
      </trkpt>
      <trkpt lat="47.08713" lon="5.49502">
        <ele>202.014282</ele>
        <time>2011-04-01T15:50:51Z</time>
      </trkpt>
      <trkpt lat="47.08707" lon="5.49474">
        <ele>201.052856</ele>
        <time>2011-04-01T15:50:54Z</time>
      </trkpt>
      <trkpt lat="47.08708" lon="5.49453">
        <ele>201.052856</ele>
        <time>2011-04-01T15:50:56Z</time>
      </trkpt>
      <trkpt lat="47.08702" lon="5.49412">
        <ele>200.091675</ele>
        <time>2011-04-01T15:51:00Z</time>
      </trkpt>
      <trkpt lat="47.08654" lon="5.4924">
        <ele>199.130127</ele>
        <time>2011-04-01T15:51:19Z</time>
      </trkpt>
      <trkpt lat="47.08599" lon="5.4914">
        <ele>199.130127</ele>
        <time>2011-04-01T15:51:33Z</time>
      </trkpt>
      <trkpt lat="47.08491" lon="5.49004">
        <ele>200.091675</ele>
        <time>2011-04-01T15:51:53Z</time>
      </trkpt>
      <trkpt lat="47.08413" lon="5.4888">
        <ele>199.61084</ele>
        <time>2011-04-01T15:52:08Z</time>
      </trkpt>
      <trkpt lat="47.08398" lon="5.4884">
        <ele>199.61084</ele>
        <time>2011-04-01T15:52:12Z</time>
      </trkpt>
      <trkpt lat="47.08373" lon="5.48813">
        <ele>200.091675</ele>
        <time>2011-04-01T15:52:16Z</time>
      </trkpt>
      <trkpt lat="47.0824" lon="5.48608">
        <ele>199.130127</ele>
        <time>2011-04-01T15:52:39Z</time>
      </trkpt>
      <trkpt lat="47.08129" lon="5.48508">
        <ele>199.130127</ele>
        <time>2011-04-01T15:52:56Z</time>
      </trkpt>
      <trkpt lat="47.08086" lon="5.48475">
        <ele>198.649536</ele>
        <time>2011-04-01T15:53:02Z</time>
      </trkpt>
      <trkpt lat="47.08051" lon="5.48493">
        <ele>199.61084</ele>
        <time>2011-04-01T15:53:08Z</time>
      </trkpt>
      <trkpt lat="47.08047" lon="5.48502">
        <ele>199.61084</ele>
        <time>2011-04-01T15:53:09Z</time>
      </trkpt>
      <trkpt lat="47.07971" lon="5.48733">
        <ele>200.091675</ele>
        <time>2011-04-01T15:53:33Z</time>
      </trkpt>
      <trkpt lat="47.07914" lon="5.4891">
        <ele>200.091675</ele>
        <time>2011-04-01T15:53:51Z</time>
      </trkpt>
      <trkpt lat="47.07861" lon="5.4896">
        <ele>199.130127</ele>
        <time>2011-04-01T15:54:00Z</time>
      </trkpt>
      <trkpt lat="47.07815" lon="5.48932">
        <ele>199.61084</ele>
        <time>2011-04-01T15:54:07Z</time>
      </trkpt>
      <trkpt lat="47.0781" lon="5.48912">
        <ele>199.61084</ele>
        <time>2011-04-01T15:54:09Z</time>
      </trkpt>
      <trkpt lat="47.07766" lon="5.48886">
        <ele>201.533569</ele>
        <time>2011-04-01T15:54:16Z</time>
      </trkpt>
      <trkpt lat="47.07752" lon="5.48911">
        <ele>201.533569</ele>
        <time>2011-04-01T15:54:19Z</time>
      </trkpt>
      <trkpt lat="47.07747" lon="5.48931">
        <ele>200.572266</ele>
        <time>2011-04-01T15:54:21Z</time>
      </trkpt>
      <trkpt lat="47.07743" lon="5.48939">
        <ele>200.572266</ele>
        <time>2011-04-01T15:54:22Z</time>
      </trkpt>
      <trkpt lat="47.07646" lon="5.49048">
        <ele>202.494873</ele>
        <time>2011-04-01T15:54:39Z</time>
      </trkpt>
      <trkpt lat="47.07572" lon="5.49178">
        <ele>202.014282</ele>
        <time>2011-04-01T15:54:54Z</time>
      </trkpt>
      <trkpt lat="47.07499" lon="5.49318">
        <ele>203.456177</ele>
        <time>2011-04-01T15:55:12Z</time>
      </trkpt>
      <trkpt lat="47.07464" lon="5.49388">
        <ele>206.820679</ele>
        <time>2011-04-01T15:55:26Z</time>
      </trkpt>
      <trkpt lat="47.07459" lon="5.49399">
        <ele>206.340088</ele>
        <time>2011-04-01T15:55:28Z</time>
      </trkpt>
      <trkpt lat="47.07444" lon="5.4941">
        <ele>207.782104</ele>
        <time>2011-04-01T15:55:32Z</time>
      </trkpt>
      <trkpt lat="47.07435" lon="5.49412">
        <ele>207.782104</ele>
        <time>2011-04-01T15:55:34Z</time>
      </trkpt>
      <trkpt lat="47.07429" lon="5.49459">
        <ele>208.262817</ele>
        <time>2011-04-01T15:55:42Z</time>
      </trkpt>
      <trkpt lat="47.0744" lon="5.49493">
        <ele>208.743408</ele>
        <time>2011-04-01T15:55:49Z</time>
      </trkpt>
      <trkpt lat="47.07438" lon="5.495">
        <ele>209.224121</ele>
        <time>2011-04-01T15:55:51Z</time>
      </trkpt>
      <trkpt lat="47.07436" lon="5.49505">
        <ele>209.224121</ele>
        <time>2011-04-01T15:55:53Z</time>
      </trkpt>
      <trkpt lat="47.07435" lon="5.49511">
        <ele>206.340088</ele>
        <time>2011-04-01T15:56:04Z</time>
      </trkpt>
      <trkpt lat="47.07435" lon="5.49511">
        <ele>207.782104</ele>
        <time>2011-04-01T15:56:05Z</time>
      </trkpt>
      <trkpt lat="47.07435" lon="5.49511">
        <ele>211.146729</ele>
        <time>2011-04-01T15:56:07Z</time>
      </trkpt>
      <trkpt lat="47.07434" lon="5.49511">
        <ele>210.185425</ele>
        <time>2011-04-01T15:57:01Z</time>
      </trkpt>
    </trkseg>
  </trk>
</gpx>